<?xml version="1.0" encoding="UTF-8" standalone="no" ?>
<gpx xmlns="http://www.topografix.com/GPX/1/1" xmlns:xsi="http://www.w3.org/2001/XMLSchema-instance" xsi:schemaLocation="http://www.topografix.com/GPX/1/1 http://www.topografix.com/GPX/1/1/gpx.xsd" version="1.1" creator="VisuGPX - https://www.visugpx.com">
  <metadata>
    <name>Tracé actuel: 27 JUIN 2020 12:51</name>
    <desc><![CDATA[voie verte+pont-maugis+noyers_retour voie verte]]></desc>
  </metadata>
  <trk>
    <name><![CDATA[Tracé actuel: 27 JUIN 2020 12:51]]></name>
    <trkseg>
      <trkpt lat="49.6335" lon="4.98067">
        <ele>279.4</ele>
        <time>2020-06-27T10:51:21Z</time>
      </trkpt>
      <trkpt lat="49.63354" lon="4.98053">
        <ele>283.25</ele>
        <time>2020-06-27T10:51:36Z</time>
      </trkpt>
      <trkpt lat="49.63353" lon="4.98047">
        <ele>283.73</ele>
        <time>2020-06-27T10:51:42Z</time>
      </trkpt>
      <trkpt lat="49.63342" lon="4.98037">
        <ele>283.25</ele>
        <time>2020-06-27T10:51:57Z</time>
      </trkpt>
      <trkpt lat="49.6333" lon="4.98029">
        <ele>285.65</ele>
        <time>2020-06-27T10:52:10Z</time>
      </trkpt>
      <trkpt lat="49.6332" lon="4.98019">
        <ele>289.49</ele>
        <time>2020-06-27T10:52:25Z</time>
      </trkpt>
      <trkpt lat="49.63311" lon="4.98008">
        <ele>292.38</ele>
        <time>2020-06-27T10:52:42Z</time>
      </trkpt>
      <trkpt lat="49.63305" lon="4.97996">
        <ele>294.78</ele>
        <time>2020-06-27T10:52:58Z</time>
      </trkpt>
      <trkpt lat="49.63297" lon="4.97984">
        <ele>293.82</ele>
        <time>2020-06-27T10:53:10Z</time>
      </trkpt>
      <trkpt lat="49.63297" lon="4.97981">
        <ele>293.34</ele>
        <time>2020-06-27T10:53:12Z</time>
      </trkpt>
      <trkpt lat="49.63302" lon="4.9797">
        <ele>291.9</ele>
        <time>2020-06-27T10:53:26Z</time>
      </trkpt>
      <trkpt lat="49.63311" lon="4.97957">
        <ele>292.86</ele>
        <time>2020-06-27T10:53:39Z</time>
      </trkpt>
      <trkpt lat="49.63317" lon="4.97946">
        <ele>293.34</ele>
        <time>2020-06-27T10:53:51Z</time>
      </trkpt>
      <trkpt lat="49.63324" lon="4.97936">
        <ele>293.82</ele>
        <time>2020-06-27T10:54:05Z</time>
      </trkpt>
      <trkpt lat="49.63333" lon="4.97929">
        <ele>293.34</ele>
        <time>2020-06-27T10:54:19Z</time>
      </trkpt>
      <trkpt lat="49.63334" lon="4.97929">
        <ele>293.34</ele>
        <time>2020-06-27T10:54:20Z</time>
      </trkpt>
      <trkpt lat="49.63345" lon="4.97913">
        <ele>289.97</ele>
        <time>2020-06-27T10:54:36Z</time>
      </trkpt>
      <trkpt lat="49.63356" lon="4.97897">
        <ele>289.97</ele>
        <time>2020-06-27T10:54:51Z</time>
      </trkpt>
      <trkpt lat="49.63364" lon="4.97884">
        <ele>288.53</ele>
        <time>2020-06-27T10:55:06Z</time>
      </trkpt>
      <trkpt lat="49.63371" lon="4.97871">
        <ele>289.01</ele>
        <time>2020-06-27T10:55:18Z</time>
      </trkpt>
      <trkpt lat="49.63377" lon="4.97861">
        <ele>288.53</ele>
        <time>2020-06-27T10:55:29Z</time>
      </trkpt>
      <trkpt lat="49.63387" lon="4.9785">
        <ele>288.05</ele>
        <time>2020-06-27T10:55:43Z</time>
      </trkpt>
      <trkpt lat="49.63392" lon="4.97844">
        <ele>288.53</ele>
        <time>2020-06-27T10:55:47Z</time>
      </trkpt>
      <trkpt lat="49.63401" lon="4.9783">
        <ele>292.86</ele>
        <time>2020-06-27T10:56:01Z</time>
      </trkpt>
      <trkpt lat="49.63404" lon="4.97825">
        <ele>293.82</ele>
        <time>2020-06-27T10:56:06Z</time>
      </trkpt>
      <trkpt lat="49.63406" lon="4.97821">
        <ele>294.78</ele>
        <time>2020-06-27T10:56:09Z</time>
      </trkpt>
      <trkpt lat="49.63412" lon="4.97819">
        <ele>295.74</ele>
        <time>2020-06-27T10:56:13Z</time>
      </trkpt>
      <trkpt lat="49.63418" lon="4.97811">
        <ele>296.22</ele>
        <time>2020-06-27T10:56:23Z</time>
      </trkpt>
      <trkpt lat="49.63427" lon="4.97789">
        <ele>296.7</ele>
        <time>2020-06-27T10:56:38Z</time>
      </trkpt>
      <trkpt lat="49.63436" lon="4.97766">
        <ele>299.11</ele>
        <time>2020-06-27T10:56:53Z</time>
      </trkpt>
      <trkpt lat="49.63445" lon="4.97745">
        <ele>301.03</ele>
        <time>2020-06-27T10:57:10Z</time>
      </trkpt>
      <trkpt lat="49.63449" lon="4.97738">
        <ele>301.99</ele>
        <time>2020-06-27T10:57:19Z</time>
      </trkpt>
      <trkpt lat="49.6346" lon="4.97717">
        <ele>302.95</ele>
        <time>2020-06-27T10:57:34Z</time>
      </trkpt>
      <trkpt lat="49.63471" lon="4.97701">
        <ele>304.39</ele>
        <time>2020-06-27T10:57:49Z</time>
      </trkpt>
      <trkpt lat="49.63482" lon="4.97696">
        <ele>305.84</ele>
        <time>2020-06-27T10:58:03Z</time>
      </trkpt>
      <trkpt lat="49.63483" lon="4.97695">
        <ele>305.36</ele>
        <time>2020-06-27T10:58:05Z</time>
      </trkpt>
      <trkpt lat="49.63496" lon="4.97694">
        <ele>304.39</ele>
        <time>2020-06-27T10:58:17Z</time>
      </trkpt>
      <trkpt lat="49.63504" lon="4.97697">
        <ele>302.95</ele>
        <time>2020-06-27T10:58:24Z</time>
      </trkpt>
      <trkpt lat="49.63507" lon="4.97702">
        <ele>302.95</ele>
        <time>2020-06-27T10:58:28Z</time>
      </trkpt>
      <trkpt lat="49.63523" lon="4.97716">
        <ele>304.88</ele>
        <time>2020-06-27T10:58:44Z</time>
      </trkpt>
      <trkpt lat="49.63533" lon="4.97721">
        <ele>304.39</ele>
        <time>2020-06-27T10:58:55Z</time>
      </trkpt>
      <trkpt lat="49.63545" lon="4.97731">
        <ele>305.36</ele>
        <time>2020-06-27T10:59:08Z</time>
      </trkpt>
      <trkpt lat="49.63558" lon="4.9774">
        <ele>305.84</ele>
        <time>2020-06-27T10:59:21Z</time>
      </trkpt>
      <trkpt lat="49.63572" lon="4.97751">
        <ele>307.28</ele>
        <time>2020-06-27T10:59:36Z</time>
      </trkpt>
      <trkpt lat="49.63586" lon="4.9776">
        <ele>306.8</ele>
        <time>2020-06-27T10:59:50Z</time>
      </trkpt>
      <trkpt lat="49.63602" lon="4.97772">
        <ele>305.84</ele>
        <time>2020-06-27T11:00:06Z</time>
      </trkpt>
      <trkpt lat="49.63618" lon="4.97782">
        <ele>303.91</ele>
        <time>2020-06-27T11:00:22Z</time>
      </trkpt>
      <trkpt lat="49.6363" lon="4.97792">
        <ele>302.95</ele>
        <time>2020-06-27T11:00:37Z</time>
      </trkpt>
      <trkpt lat="49.63645" lon="4.97802">
        <ele>302.47</ele>
        <time>2020-06-27T11:00:52Z</time>
      </trkpt>
      <trkpt lat="49.63652" lon="4.97806">
        <ele>301.51</ele>
        <time>2020-06-27T11:00:59Z</time>
      </trkpt>
      <trkpt lat="49.63665" lon="4.97822">
        <ele>304.88</ele>
        <time>2020-06-27T11:01:15Z</time>
      </trkpt>
      <trkpt lat="49.63669" lon="4.97827">
        <ele>305.84</ele>
        <time>2020-06-27T11:01:21Z</time>
      </trkpt>
      <trkpt lat="49.63677" lon="4.97834">
        <ele>308.72</ele>
        <time>2020-06-27T11:01:38Z</time>
      </trkpt>
      <trkpt lat="49.63682" lon="4.97838">
        <ele>308.72</ele>
        <time>2020-06-27T11:01:51Z</time>
      </trkpt>
      <trkpt lat="49.63689" lon="4.97845">
        <ele>308.72</ele>
        <time>2020-06-27T11:02:04Z</time>
      </trkpt>
      <trkpt lat="49.63694" lon="4.97849">
        <ele>308.24</ele>
        <time>2020-06-27T11:02:12Z</time>
      </trkpt>
      <trkpt lat="49.63699" lon="4.97854">
        <ele>308.24</ele>
        <time>2020-06-27T11:02:18Z</time>
      </trkpt>
      <trkpt lat="49.63702" lon="4.97858">
        <ele>307.76</ele>
        <time>2020-06-27T11:02:21Z</time>
      </trkpt>
      <trkpt lat="49.63707" lon="4.97861">
        <ele>307.28</ele>
        <time>2020-06-27T11:02:30Z</time>
      </trkpt>
      <trkpt lat="49.63721" lon="4.97871">
        <ele>305.84</ele>
        <time>2020-06-27T11:02:44Z</time>
      </trkpt>
      <trkpt lat="49.63735" lon="4.97883">
        <ele>305.36</ele>
        <time>2020-06-27T11:02:57Z</time>
      </trkpt>
      <trkpt lat="49.63745" lon="4.9789">
        <ele>304.88</ele>
        <time>2020-06-27T11:03:07Z</time>
      </trkpt>
      <trkpt lat="49.63758" lon="4.97901">
        <ele>305.36</ele>
        <time>2020-06-27T11:03:23Z</time>
      </trkpt>
      <trkpt lat="49.63769" lon="4.97912">
        <ele>306.8</ele>
        <time>2020-06-27T11:03:38Z</time>
      </trkpt>
      <trkpt lat="49.63781" lon="4.97925">
        <ele>309.2</ele>
        <time>2020-06-27T11:03:57Z</time>
      </trkpt>
      <trkpt lat="49.63798" lon="4.97942">
        <ele>310.16</ele>
        <time>2020-06-27T11:04:14Z</time>
      </trkpt>
      <trkpt lat="49.63814" lon="4.97958">
        <ele>311.12</ele>
        <time>2020-06-27T11:04:31Z</time>
      </trkpt>
      <trkpt lat="49.63827" lon="4.97974">
        <ele>312.57</ele>
        <time>2020-06-27T11:04:47Z</time>
      </trkpt>
      <trkpt lat="49.63844" lon="4.97989">
        <ele>312.57</ele>
        <time>2020-06-27T11:05:03Z</time>
      </trkpt>
      <trkpt lat="49.63859" lon="4.98005">
        <ele>313.05</ele>
        <time>2020-06-27T11:05:17Z</time>
      </trkpt>
      <trkpt lat="49.63873" lon="4.98017">
        <ele>313.05</ele>
        <time>2020-06-27T11:05:32Z</time>
      </trkpt>
      <trkpt lat="49.63891" lon="4.98031">
        <ele>312.09</ele>
        <time>2020-06-27T11:05:47Z</time>
      </trkpt>
      <trkpt lat="49.63906" lon="4.98044">
        <ele>310.64</ele>
        <time>2020-06-27T11:06:03Z</time>
      </trkpt>
      <trkpt lat="49.63921" lon="4.98056">
        <ele>311.6</ele>
        <time>2020-06-27T11:06:19Z</time>
      </trkpt>
      <trkpt lat="49.63934" lon="4.98067">
        <ele>311.6</ele>
        <time>2020-06-27T11:06:34Z</time>
      </trkpt>
      <trkpt lat="49.63947" lon="4.98081">
        <ele>309.2</ele>
        <time>2020-06-27T11:06:48Z</time>
      </trkpt>
      <trkpt lat="49.6395" lon="4.98086">
        <ele>308.24</ele>
        <time>2020-06-27T11:06:53Z</time>
      </trkpt>
      <trkpt lat="49.63952" lon="4.98088">
        <ele>308.24</ele>
        <time>2020-06-27T11:06:55Z</time>
      </trkpt>
      <trkpt lat="49.63966" lon="4.981">
        <ele>307.76</ele>
        <time>2020-06-27T11:07:11Z</time>
      </trkpt>
      <trkpt lat="49.63979" lon="4.98111">
        <ele>306.8</ele>
        <time>2020-06-27T11:07:26Z</time>
      </trkpt>
      <trkpt lat="49.63994" lon="4.98127">
        <ele>304.88</ele>
        <time>2020-06-27T11:07:43Z</time>
      </trkpt>
      <trkpt lat="49.64007" lon="4.98138">
        <ele>305.36</ele>
        <time>2020-06-27T11:07:56Z</time>
      </trkpt>
      <trkpt lat="49.64018" lon="4.98154">
        <ele>310.16</ele>
        <time>2020-06-27T11:08:12Z</time>
      </trkpt>
      <trkpt lat="49.64033" lon="4.98167">
        <ele>313.53</ele>
        <time>2020-06-27T11:08:27Z</time>
      </trkpt>
      <trkpt lat="49.64046" lon="4.98183">
        <ele>314.97</ele>
        <time>2020-06-27T11:08:41Z</time>
      </trkpt>
      <trkpt lat="49.64062" lon="4.98196">
        <ele>313.53</ele>
        <time>2020-06-27T11:08:56Z</time>
      </trkpt>
      <trkpt lat="49.64078" lon="4.98208">
        <ele>313.53</ele>
        <time>2020-06-27T11:09:11Z</time>
      </trkpt>
      <trkpt lat="49.64092" lon="4.98222">
        <ele>311.12</ele>
        <time>2020-06-27T11:09:25Z</time>
      </trkpt>
      <trkpt lat="49.64106" lon="4.98235">
        <ele>310.64</ele>
        <time>2020-06-27T11:09:42Z</time>
      </trkpt>
      <trkpt lat="49.6412" lon="4.98245">
        <ele>311.6</ele>
        <time>2020-06-27T11:09:57Z</time>
      </trkpt>
      <trkpt lat="49.64123" lon="4.9825">
        <ele>312.57</ele>
        <time>2020-06-27T11:10:02Z</time>
      </trkpt>
      <trkpt lat="49.64129" lon="4.98254">
        <ele>313.05</ele>
        <time>2020-06-27T11:10:06Z</time>
      </trkpt>
      <trkpt lat="49.64141" lon="4.98266">
        <ele>314.97</ele>
        <time>2020-06-27T11:10:21Z</time>
      </trkpt>
      <trkpt lat="49.64156" lon="4.9828">
        <ele>314.49</ele>
        <time>2020-06-27T11:10:35Z</time>
      </trkpt>
      <trkpt lat="49.64167" lon="4.9829">
        <ele>313.53</ele>
        <time>2020-06-27T11:10:45Z</time>
      </trkpt>
      <trkpt lat="49.64185" lon="4.98302">
        <ele>312.09</ele>
        <time>2020-06-27T11:11:02Z</time>
      </trkpt>
      <trkpt lat="49.64198" lon="4.98316">
        <ele>311.6</ele>
        <time>2020-06-27T11:11:16Z</time>
      </trkpt>
      <trkpt lat="49.64213" lon="4.98324">
        <ele>311.12</ele>
        <time>2020-06-27T11:11:32Z</time>
      </trkpt>
      <trkpt lat="49.64224" lon="4.98332">
        <ele>309.2</ele>
        <time>2020-06-27T11:11:47Z</time>
      </trkpt>
      <trkpt lat="49.64235" lon="4.9834">
        <ele>308.24</ele>
        <time>2020-06-27T11:12:01Z</time>
      </trkpt>
      <trkpt lat="49.64246" lon="4.98348">
        <ele>307.28</ele>
        <time>2020-06-27T11:12:15Z</time>
      </trkpt>
      <trkpt lat="49.64251" lon="4.98352">
        <ele>307.28</ele>
        <time>2020-06-27T11:12:21Z</time>
      </trkpt>
      <trkpt lat="49.64261" lon="4.98363">
        <ele>308.24</ele>
        <time>2020-06-27T11:12:33Z</time>
      </trkpt>
      <trkpt lat="49.64269" lon="4.98371">
        <ele>309.2</ele>
        <time>2020-06-27T11:12:42Z</time>
      </trkpt>
      <trkpt lat="49.64283" lon="4.98381">
        <ele>308.72</ele>
        <time>2020-06-27T11:12:56Z</time>
      </trkpt>
      <trkpt lat="49.64294" lon="4.98389">
        <ele>307.76</ele>
        <time>2020-06-27T11:13:11Z</time>
      </trkpt>
      <trkpt lat="49.64309" lon="4.98401">
        <ele>307.28</ele>
        <time>2020-06-27T11:13:25Z</time>
      </trkpt>
      <trkpt lat="49.64324" lon="4.98408">
        <ele>307.76</ele>
        <time>2020-06-27T11:13:38Z</time>
      </trkpt>
      <trkpt lat="49.64335" lon="4.98412">
        <ele>305.84</ele>
        <time>2020-06-27T11:13:51Z</time>
      </trkpt>
      <trkpt lat="49.64351" lon="4.98423">
        <ele>303.43</ele>
        <time>2020-06-27T11:14:08Z</time>
      </trkpt>
      <trkpt lat="49.64361" lon="4.98433">
        <ele>302.95</ele>
        <time>2020-06-27T11:14:23Z</time>
      </trkpt>
      <trkpt lat="49.6437" lon="4.98439">
        <ele>303.43</ele>
        <time>2020-06-27T11:14:37Z</time>
      </trkpt>
      <trkpt lat="49.64386" lon="4.9845">
        <ele>302.47</ele>
        <time>2020-06-27T11:14:51Z</time>
      </trkpt>
      <trkpt lat="49.64402" lon="4.9846">
        <ele>301.51</ele>
        <time>2020-06-27T11:15:06Z</time>
      </trkpt>
      <trkpt lat="49.64417" lon="4.98466">
        <ele>299.59</ele>
        <time>2020-06-27T11:15:19Z</time>
      </trkpt>
      <trkpt lat="49.6443" lon="4.98471">
        <ele>298.15</ele>
        <time>2020-06-27T11:15:31Z</time>
      </trkpt>
      <trkpt lat="49.64433" lon="4.98472">
        <ele>298.15</ele>
        <time>2020-06-27T11:15:35Z</time>
      </trkpt>
      <trkpt lat="49.64446" lon="4.98478">
        <ele>296.7</ele>
        <time>2020-06-27T11:15:48Z</time>
      </trkpt>
      <trkpt lat="49.64457" lon="4.98484">
        <ele>295.26</ele>
        <time>2020-06-27T11:16:00Z</time>
      </trkpt>
      <trkpt lat="49.6447" lon="4.9849">
        <ele>295.26</ele>
        <time>2020-06-27T11:16:13Z</time>
      </trkpt>
      <trkpt lat="49.64482" lon="4.98495">
        <ele>295.26</ele>
        <time>2020-06-27T11:16:27Z</time>
      </trkpt>
      <trkpt lat="49.64496" lon="4.985">
        <ele>297.67</ele>
        <time>2020-06-27T11:16:40Z</time>
      </trkpt>
      <trkpt lat="49.6451" lon="4.98505">
        <ele>301.99</ele>
        <time>2020-06-27T11:16:54Z</time>
      </trkpt>
      <trkpt lat="49.64514" lon="4.98506">
        <ele>302.95</ele>
        <time>2020-06-27T11:16:59Z</time>
      </trkpt>
      <trkpt lat="49.64529" lon="4.98514">
        <ele>302.95</ele>
        <time>2020-06-27T11:17:13Z</time>
      </trkpt>
      <trkpt lat="49.64545" lon="4.98522">
        <ele>303.91</ele>
        <time>2020-06-27T11:17:27Z</time>
      </trkpt>
      <trkpt lat="49.64556" lon="4.98527">
        <ele>305.36</ele>
        <time>2020-06-27T11:17:39Z</time>
      </trkpt>
      <trkpt lat="49.64559" lon="4.98529">
        <ele>305.36</ele>
        <time>2020-06-27T11:17:43Z</time>
      </trkpt>
      <trkpt lat="49.64573" lon="4.9854">
        <ele>307.28</ele>
        <time>2020-06-27T11:17:58Z</time>
      </trkpt>
      <trkpt lat="49.64574" lon="4.98541">
        <ele>307.28</ele>
        <time>2020-06-27T11:17:59Z</time>
      </trkpt>
      <trkpt lat="49.64589" lon="4.98547">
        <ele>310.16</ele>
        <time>2020-06-27T11:18:15Z</time>
      </trkpt>
      <trkpt lat="49.646" lon="4.98553">
        <ele>313.05</ele>
        <time>2020-06-27T11:18:28Z</time>
      </trkpt>
      <trkpt lat="49.64612" lon="4.98562">
        <ele>315.93</ele>
        <time>2020-06-27T11:18:42Z</time>
      </trkpt>
      <trkpt lat="49.64624" lon="4.98569">
        <ele>317.37</ele>
        <time>2020-06-27T11:18:54Z</time>
      </trkpt>
      <trkpt lat="49.64626" lon="4.9857">
        <ele>317.37</ele>
        <time>2020-06-27T11:18:55Z</time>
      </trkpt>
      <trkpt lat="49.64644" lon="4.98582">
        <ele>317.85</ele>
        <time>2020-06-27T11:19:11Z</time>
      </trkpt>
      <trkpt lat="49.64681" lon="4.98579">
        <ele>317.85</ele>
        <time>2020-06-27T11:19:25Z</time>
      </trkpt>
      <trkpt lat="49.64701" lon="4.98582">
        <ele>315.93</ele>
        <time>2020-06-27T11:19:37Z</time>
      </trkpt>
      <trkpt lat="49.64721" lon="4.98584">
        <ele>314.97</ele>
        <time>2020-06-27T11:19:50Z</time>
      </trkpt>
      <trkpt lat="49.64747" lon="4.9858">
        <ele>313.53</ele>
        <time>2020-06-27T11:20:04Z</time>
      </trkpt>
      <trkpt lat="49.64768" lon="4.9858">
        <ele>310.64</ele>
        <time>2020-06-27T11:20:18Z</time>
      </trkpt>
      <trkpt lat="49.64787" lon="4.98583">
        <ele>307.28</ele>
        <time>2020-06-27T11:20:33Z</time>
      </trkpt>
      <trkpt lat="49.64806" lon="4.98591">
        <ele>305.84</ele>
        <time>2020-06-27T11:20:48Z</time>
      </trkpt>
      <trkpt lat="49.64824" lon="4.986">
        <ele>303.43</ele>
        <time>2020-06-27T11:21:02Z</time>
      </trkpt>
      <trkpt lat="49.64839" lon="4.98607">
        <ele>300.55</ele>
        <time>2020-06-27T11:21:16Z</time>
      </trkpt>
      <trkpt lat="49.64854" lon="4.98616">
        <ele>296.22</ele>
        <time>2020-06-27T11:21:32Z</time>
      </trkpt>
      <trkpt lat="49.64867" lon="4.98625">
        <ele>291.9</ele>
        <time>2020-06-27T11:21:46Z</time>
      </trkpt>
      <trkpt lat="49.64879" lon="4.98633">
        <ele>289.01</ele>
        <time>2020-06-27T11:21:58Z</time>
      </trkpt>
      <trkpt lat="49.64892" lon="4.98641">
        <ele>286.61</ele>
        <time>2020-06-27T11:22:11Z</time>
      </trkpt>
      <trkpt lat="49.64901" lon="4.98645">
        <ele>284.69</ele>
        <time>2020-06-27T11:22:21Z</time>
      </trkpt>
      <trkpt lat="49.64915" lon="4.98655">
        <ele>282.77</ele>
        <time>2020-06-27T11:22:35Z</time>
      </trkpt>
      <trkpt lat="49.64927" lon="4.98664">
        <ele>280.84</ele>
        <time>2020-06-27T11:22:49Z</time>
      </trkpt>
      <trkpt lat="49.64933" lon="4.98668">
        <ele>278.44</ele>
        <time>2020-06-27T11:22:58Z</time>
      </trkpt>
      <trkpt lat="49.64946" lon="4.98683">
        <ele>278.44</ele>
        <time>2020-06-27T11:23:12Z</time>
      </trkpt>
      <trkpt lat="49.64958" lon="4.98696">
        <ele>278.44</ele>
        <time>2020-06-27T11:23:26Z</time>
      </trkpt>
      <trkpt lat="49.64975" lon="4.98708">
        <ele>277.48</ele>
        <time>2020-06-27T11:23:43Z</time>
      </trkpt>
      <trkpt lat="49.64986" lon="4.9872">
        <ele>276.52</ele>
        <time>2020-06-27T11:23:56Z</time>
      </trkpt>
      <trkpt lat="49.64988" lon="4.98722">
        <ele>276.04</ele>
        <time>2020-06-27T11:23:59Z</time>
      </trkpt>
      <trkpt lat="49.65001" lon="4.98733">
        <ele>273.63</ele>
        <time>2020-06-27T11:24:13Z</time>
      </trkpt>
      <trkpt lat="49.65011" lon="4.98743">
        <ele>271.23</ele>
        <time>2020-06-27T11:24:25Z</time>
      </trkpt>
      <trkpt lat="49.65019" lon="4.9875">
        <ele>270.75</ele>
        <time>2020-06-27T11:24:34Z</time>
      </trkpt>
      <trkpt lat="49.65034" lon="4.98761">
        <ele>269.79</ele>
        <time>2020-06-27T11:24:49Z</time>
      </trkpt>
      <trkpt lat="49.65041" lon="4.98768">
        <ele>269.79</ele>
        <time>2020-06-27T11:24:57Z</time>
      </trkpt>
      <trkpt lat="49.65043" lon="4.98769">
        <ele>269.79</ele>
        <time>2020-06-27T11:24:59Z</time>
      </trkpt>
      <trkpt lat="49.65054" lon="4.98785">
        <ele>269.31</ele>
        <time>2020-06-27T11:25:12Z</time>
      </trkpt>
      <trkpt lat="49.65065" lon="4.98799">
        <ele>270.27</ele>
        <time>2020-06-27T11:25:24Z</time>
      </trkpt>
      <trkpt lat="49.65078" lon="4.98814">
        <ele>271.23</ele>
        <time>2020-06-27T11:25:38Z</time>
      </trkpt>
      <trkpt lat="49.6509" lon="4.98831">
        <ele>271.23</ele>
        <time>2020-06-27T11:25:51Z</time>
      </trkpt>
      <trkpt lat="49.651" lon="4.98847">
        <ele>270.75</ele>
        <time>2020-06-27T11:26:03Z</time>
      </trkpt>
      <trkpt lat="49.65105" lon="4.9885">
        <ele>271.23</ele>
        <time>2020-06-27T11:26:09Z</time>
      </trkpt>
      <trkpt lat="49.65109" lon="4.98855">
        <ele>270.75</ele>
        <time>2020-06-27T11:26:13Z</time>
      </trkpt>
      <trkpt lat="49.6512" lon="4.98869">
        <ele>270.75</ele>
        <time>2020-06-27T11:26:26Z</time>
      </trkpt>
      <trkpt lat="49.65133" lon="4.98884">
        <ele>270.75</ele>
        <time>2020-06-27T11:26:39Z</time>
      </trkpt>
      <trkpt lat="49.65137" lon="4.98886">
        <ele>270.75</ele>
        <time>2020-06-27T11:26:45Z</time>
      </trkpt>
      <trkpt lat="49.65141" lon="4.98892">
        <ele>270.75</ele>
        <time>2020-06-27T11:26:49Z</time>
      </trkpt>
      <trkpt lat="49.65151" lon="4.98899">
        <ele>270.27</ele>
        <time>2020-06-27T11:27:00Z</time>
      </trkpt>
      <trkpt lat="49.65164" lon="4.98915">
        <ele>270.75</ele>
        <time>2020-06-27T11:27:14Z</time>
      </trkpt>
      <trkpt lat="49.65169" lon="4.98919">
        <ele>270.75</ele>
        <time>2020-06-27T11:27:20Z</time>
      </trkpt>
      <trkpt lat="49.65187" lon="4.98923">
        <ele>269.79</ele>
        <time>2020-06-27T11:27:35Z</time>
      </trkpt>
      <trkpt lat="49.65199" lon="4.98931">
        <ele>268.35</ele>
        <time>2020-06-27T11:27:47Z</time>
      </trkpt>
      <trkpt lat="49.6521" lon="4.98938">
        <ele>266.42</ele>
        <time>2020-06-27T11:27:59Z</time>
      </trkpt>
      <trkpt lat="49.65224" lon="4.98948">
        <ele>264.98</ele>
        <time>2020-06-27T11:28:13Z</time>
      </trkpt>
      <trkpt lat="49.65237" lon="4.98958">
        <ele>262.1</ele>
        <time>2020-06-27T11:28:28Z</time>
      </trkpt>
      <trkpt lat="49.65249" lon="4.9897">
        <ele>259.69</ele>
        <time>2020-06-27T11:28:41Z</time>
      </trkpt>
      <trkpt lat="49.65261" lon="4.98979">
        <ele>258.73</ele>
        <time>2020-06-27T11:28:54Z</time>
      </trkpt>
      <trkpt lat="49.65274" lon="4.9899">
        <ele>257.77</ele>
        <time>2020-06-27T11:29:08Z</time>
      </trkpt>
      <trkpt lat="49.65284" lon="4.99002">
        <ele>257.29</ele>
        <time>2020-06-27T11:29:21Z</time>
      </trkpt>
      <trkpt lat="49.65294" lon="4.99009">
        <ele>256.81</ele>
        <time>2020-06-27T11:29:33Z</time>
      </trkpt>
      <trkpt lat="49.65302" lon="4.99022">
        <ele>256.81</ele>
        <time>2020-06-27T11:29:44Z</time>
      </trkpt>
      <trkpt lat="49.6531" lon="4.99041">
        <ele>258.25</ele>
        <time>2020-06-27T11:29:58Z</time>
      </trkpt>
      <trkpt lat="49.65317" lon="4.99063">
        <ele>259.69</ele>
        <time>2020-06-27T11:30:12Z</time>
      </trkpt>
      <trkpt lat="49.65321" lon="4.99082">
        <ele>262.1</ele>
        <time>2020-06-27T11:30:25Z</time>
      </trkpt>
      <trkpt lat="49.65328" lon="4.99101">
        <ele>264.02</ele>
        <time>2020-06-27T11:30:38Z</time>
      </trkpt>
      <trkpt lat="49.65337" lon="4.99116">
        <ele>266.42</ele>
        <time>2020-06-27T11:30:51Z</time>
      </trkpt>
      <trkpt lat="49.65347" lon="4.99137">
        <ele>272.19</ele>
        <time>2020-06-27T11:31:05Z</time>
      </trkpt>
      <trkpt lat="49.6535" lon="4.99139">
        <ele>273.15</ele>
        <time>2020-06-27T11:31:09Z</time>
      </trkpt>
      <trkpt lat="49.65362" lon="4.99155">
        <ele>276.04</ele>
        <time>2020-06-27T11:31:24Z</time>
      </trkpt>
      <trkpt lat="49.65358" lon="4.99171">
        <ele>278.44</ele>
        <time>2020-06-27T11:31:36Z</time>
      </trkpt>
      <trkpt lat="49.65362" lon="4.99176">
        <ele>278.92</ele>
        <time>2020-06-27T11:31:40Z</time>
      </trkpt>
      <trkpt lat="49.65368" lon="4.9917">
        <ele>278.44</ele>
        <time>2020-06-27T11:31:49Z</time>
      </trkpt>
      <trkpt lat="49.65372" lon="4.99167">
        <ele>277.96</ele>
        <time>2020-06-27T11:31:52Z</time>
      </trkpt>
      <trkpt lat="49.65386" lon="4.99178">
        <ele>276.04</ele>
        <time>2020-06-27T11:32:07Z</time>
      </trkpt>
      <trkpt lat="49.65395" lon="4.99189">
        <ele>276.04</ele>
        <time>2020-06-27T11:32:19Z</time>
      </trkpt>
      <trkpt lat="49.654" lon="4.99192">
        <ele>276.52</ele>
        <time>2020-06-27T11:32:26Z</time>
      </trkpt>
      <trkpt lat="49.65412" lon="4.99206">
        <ele>276.52</ele>
        <time>2020-06-27T11:32:40Z</time>
      </trkpt>
      <trkpt lat="49.6542" lon="4.99222">
        <ele>274.11</ele>
        <time>2020-06-27T11:32:44Z</time>
      </trkpt>
      <trkpt lat="49.6543" lon="4.9924">
        <ele>274.59</ele>
        <time>2020-06-27T11:32:51Z</time>
      </trkpt>
      <trkpt lat="49.65443" lon="4.9926">
        <ele>274.11</ele>
        <time>2020-06-27T11:33:05Z</time>
      </trkpt>
      <trkpt lat="49.65449" lon="4.99274">
        <ele>274.11</ele>
        <time>2020-06-27T11:33:17Z</time>
      </trkpt>
      <trkpt lat="49.6546" lon="4.99279">
        <ele>272.67</ele>
        <time>2020-06-27T11:33:27Z</time>
      </trkpt>
      <trkpt lat="49.65462" lon="4.99279">
        <ele>272.67</ele>
        <time>2020-06-27T11:33:29Z</time>
      </trkpt>
      <trkpt lat="49.65471" lon="4.99269">
        <ele>269.79</ele>
        <time>2020-06-27T11:33:42Z</time>
      </trkpt>
      <trkpt lat="49.65478" lon="4.99252">
        <ele>267.38</ele>
        <time>2020-06-27T11:33:54Z</time>
      </trkpt>
      <trkpt lat="49.65484" lon="4.99232">
        <ele>261.62</ele>
        <time>2020-06-27T11:34:06Z</time>
      </trkpt>
      <trkpt lat="49.65488" lon="4.99217">
        <ele>257.77</ele>
        <time>2020-06-27T11:34:18Z</time>
      </trkpt>
      <trkpt lat="49.65495" lon="4.99199">
        <ele>253.93</ele>
        <time>2020-06-27T11:34:30Z</time>
      </trkpt>
      <trkpt lat="49.655" lon="4.99193">
        <ele>254.41</ele>
        <time>2020-06-27T11:34:39Z</time>
      </trkpt>
      <trkpt lat="49.65506" lon="4.99196">
        <ele>253.93</ele>
        <time>2020-06-27T11:34:44Z</time>
      </trkpt>
      <trkpt lat="49.65518" lon="4.99206">
        <ele>254.89</ele>
        <time>2020-06-27T11:34:58Z</time>
      </trkpt>
      <trkpt lat="49.6552" lon="4.99207">
        <ele>255.85</ele>
        <time>2020-06-27T11:35:01Z</time>
      </trkpt>
      <trkpt lat="49.65534" lon="4.99214">
        <ele>255.37</ele>
        <time>2020-06-27T11:35:15Z</time>
      </trkpt>
      <trkpt lat="49.65545" lon="4.99223">
        <ele>256.81</ele>
        <time>2020-06-27T11:35:27Z</time>
      </trkpt>
      <trkpt lat="49.65552" lon="4.99234">
        <ele>259.21</ele>
        <time>2020-06-27T11:35:37Z</time>
      </trkpt>
      <trkpt lat="49.6556" lon="4.99246">
        <ele>261.14</ele>
        <time>2020-06-27T11:35:49Z</time>
      </trkpt>
      <trkpt lat="49.65571" lon="4.99232">
        <ele>261.14</ele>
        <time>2020-06-27T11:36:02Z</time>
      </trkpt>
      <trkpt lat="49.65583" lon="4.99214">
        <ele>258.73</ele>
        <time>2020-06-27T11:36:14Z</time>
      </trkpt>
      <trkpt lat="49.65595" lon="4.99195">
        <ele>258.25</ele>
        <time>2020-06-27T11:36:29Z</time>
      </trkpt>
      <trkpt lat="49.65602" lon="4.9918">
        <ele>257.77</ele>
        <time>2020-06-27T11:36:39Z</time>
      </trkpt>
      <trkpt lat="49.65614" lon="4.99161">
        <ele>256.33</ele>
        <time>2020-06-27T11:36:53Z</time>
      </trkpt>
      <trkpt lat="49.65623" lon="4.99148">
        <ele>253.93</ele>
        <time>2020-06-27T11:37:05Z</time>
      </trkpt>
      <trkpt lat="49.65631" lon="4.99132">
        <ele>251.04</ele>
        <time>2020-06-27T11:37:18Z</time>
      </trkpt>
      <trkpt lat="49.65632" lon="4.9913">
        <ele>250.56</ele>
        <time>2020-06-27T11:37:20Z</time>
      </trkpt>
      <trkpt lat="49.65642" lon="4.99113">
        <ele>246.23</ele>
        <time>2020-06-27T11:37:35Z</time>
      </trkpt>
      <trkpt lat="49.65643" lon="4.99113">
        <ele>245.75</ele>
        <time>2020-06-27T11:37:36Z</time>
      </trkpt>
      <trkpt lat="49.65654" lon="4.99094">
        <ele>242.39</ele>
        <time>2020-06-27T11:37:51Z</time>
      </trkpt>
      <trkpt lat="49.65662" lon="4.99078">
        <ele>239.99</ele>
        <time>2020-06-27T11:38:04Z</time>
      </trkpt>
      <trkpt lat="49.65665" lon="4.99074">
        <ele>239.02</ele>
        <time>2020-06-27T11:38:08Z</time>
      </trkpt>
      <trkpt lat="49.65674" lon="4.99059">
        <ele>238.06</ele>
        <time>2020-06-27T11:38:20Z</time>
      </trkpt>
      <trkpt lat="49.65682" lon="4.9904">
        <ele>236.62</ele>
        <time>2020-06-27T11:38:33Z</time>
      </trkpt>
      <trkpt lat="49.65691" lon="4.99022">
        <ele>234.7</ele>
        <time>2020-06-27T11:38:47Z</time>
      </trkpt>
      <trkpt lat="49.657" lon="4.9901">
        <ele>233.74</ele>
        <time>2020-06-27T11:39:00Z</time>
      </trkpt>
      <trkpt lat="49.65709" lon="4.98991">
        <ele>230.85</ele>
        <time>2020-06-27T11:39:15Z</time>
      </trkpt>
      <trkpt lat="49.65718" lon="4.98976">
        <ele>228.45</ele>
        <time>2020-06-27T11:39:27Z</time>
      </trkpt>
      <trkpt lat="49.65726" lon="4.98963">
        <ele>228.45</ele>
        <time>2020-06-27T11:39:39Z</time>
      </trkpt>
      <trkpt lat="49.65734" lon="4.98946">
        <ele>227.49</ele>
        <time>2020-06-27T11:39:52Z</time>
      </trkpt>
      <trkpt lat="49.65743" lon="4.98929">
        <ele>228.45</ele>
        <time>2020-06-27T11:40:05Z</time>
      </trkpt>
      <trkpt lat="49.65751" lon="4.98912">
        <ele>228.93</ele>
        <time>2020-06-27T11:40:18Z</time>
      </trkpt>
      <trkpt lat="49.6576" lon="4.98898">
        <ele>229.41</ele>
        <time>2020-06-27T11:40:30Z</time>
      </trkpt>
      <trkpt lat="49.65768" lon="4.98897">
        <ele>221.72</ele>
        <time>2020-06-27T11:40:43Z</time>
      </trkpt>
      <trkpt lat="49.6578" lon="4.98887">
        <ele>215.47</ele>
        <time>2020-06-27T11:40:58Z</time>
      </trkpt>
      <trkpt lat="49.65789" lon="4.98873">
        <ele>210.67</ele>
        <time>2020-06-27T11:41:11Z</time>
      </trkpt>
      <trkpt lat="49.65797" lon="4.98858">
        <ele>207.3</ele>
        <time>2020-06-27T11:41:24Z</time>
      </trkpt>
      <trkpt lat="49.65805" lon="4.98843">
        <ele>203.94</ele>
        <time>2020-06-27T11:41:37Z</time>
      </trkpt>
      <trkpt lat="49.65814" lon="4.98825">
        <ele>200.09</ele>
        <time>2020-06-27T11:41:51Z</time>
      </trkpt>
      <trkpt lat="49.65822" lon="4.98808">
        <ele>198.17</ele>
        <time>2020-06-27T11:42:06Z</time>
      </trkpt>
      <trkpt lat="49.65828" lon="4.98796">
        <ele>198.17</ele>
        <time>2020-06-27T11:42:17Z</time>
      </trkpt>
      <trkpt lat="49.65836" lon="4.98777">
        <ele>195.77</ele>
        <time>2020-06-27T11:42:30Z</time>
      </trkpt>
      <trkpt lat="49.65845" lon="4.98759">
        <ele>194.32</ele>
        <time>2020-06-27T11:42:44Z</time>
      </trkpt>
      <trkpt lat="49.65855" lon="4.98738">
        <ele>185.19</ele>
        <time>2020-06-27T11:42:59Z</time>
      </trkpt>
      <trkpt lat="49.65862" lon="4.98724">
        <ele>181.35</ele>
        <time>2020-06-27T11:43:10Z</time>
      </trkpt>
      <trkpt lat="49.6587" lon="4.98706">
        <ele>177.5</ele>
        <time>2020-06-27T11:43:24Z</time>
      </trkpt>
      <trkpt lat="49.65879" lon="4.98688">
        <ele>174.62</ele>
        <time>2020-06-27T11:43:38Z</time>
      </trkpt>
      <trkpt lat="49.65888" lon="4.98671">
        <ele>173.66</ele>
        <time>2020-06-27T11:43:53Z</time>
      </trkpt>
      <trkpt lat="49.65897" lon="4.98653">
        <ele>172.21</ele>
        <time>2020-06-27T11:44:07Z</time>
      </trkpt>
      <trkpt lat="49.65904" lon="4.98637">
        <ele>171.25</ele>
        <time>2020-06-27T11:44:20Z</time>
      </trkpt>
      <trkpt lat="49.65912" lon="4.98621">
        <ele>169.81</ele>
        <time>2020-06-27T11:44:34Z</time>
      </trkpt>
      <trkpt lat="49.65921" lon="4.98606">
        <ele>168.85</ele>
        <time>2020-06-27T11:44:46Z</time>
      </trkpt>
      <trkpt lat="49.65929" lon="4.9859">
        <ele>168.85</ele>
        <time>2020-06-27T11:44:58Z</time>
      </trkpt>
      <trkpt lat="49.65936" lon="4.98576">
        <ele>167.41</ele>
        <time>2020-06-27T11:45:10Z</time>
      </trkpt>
      <trkpt lat="49.65938" lon="4.98568">
        <ele>166.93</ele>
        <time>2020-06-27T11:45:16Z</time>
      </trkpt>
      <trkpt lat="49.65941" lon="4.98562">
        <ele>167.41</ele>
        <time>2020-06-27T11:45:20Z</time>
      </trkpt>
      <trkpt lat="49.65948" lon="4.98546">
        <ele>167.89</ele>
        <time>2020-06-27T11:45:34Z</time>
      </trkpt>
      <trkpt lat="49.65958" lon="4.98528">
        <ele>168.85</ele>
        <time>2020-06-27T11:45:48Z</time>
      </trkpt>
      <trkpt lat="49.65965" lon="4.98511">
        <ele>170.29</ele>
        <time>2020-06-27T11:46:01Z</time>
      </trkpt>
      <trkpt lat="49.65969" lon="4.98503">
        <ele>171.25</ele>
        <time>2020-06-27T11:46:11Z</time>
      </trkpt>
      <trkpt lat="49.65968" lon="4.98504">
        <ele>171.73</ele>
        <time>2020-06-27T11:46:25Z</time>
      </trkpt>
      <trkpt lat="49.65973" lon="4.98493">
        <ele>170.29</ele>
        <time>2020-06-27T11:46:36Z</time>
      </trkpt>
      <trkpt lat="49.65979" lon="4.98487">
        <ele>169.81</ele>
        <time>2020-06-27T11:46:42Z</time>
      </trkpt>
      <trkpt lat="49.65989" lon="4.9847">
        <ele>167.41</ele>
        <time>2020-06-27T11:46:57Z</time>
      </trkpt>
      <trkpt lat="49.65999" lon="4.98456">
        <ele>165</ele>
        <time>2020-06-27T11:47:11Z</time>
      </trkpt>
      <trkpt lat="49.66009" lon="4.98439">
        <ele>162.6</ele>
        <time>2020-06-27T11:47:26Z</time>
      </trkpt>
      <trkpt lat="49.66018" lon="4.9842">
        <ele>159.24</ele>
        <time>2020-06-27T11:47:41Z</time>
      </trkpt>
      <trkpt lat="49.66027" lon="4.98403">
        <ele>159.72</ele>
        <time>2020-06-27T11:47:53Z</time>
      </trkpt>
      <trkpt lat="49.66036" lon="4.98385">
        <ele>162.12</ele>
        <time>2020-06-27T11:48:06Z</time>
      </trkpt>
      <trkpt lat="49.66045" lon="4.98365">
        <ele>163.56</ele>
        <time>2020-06-27T11:48:20Z</time>
      </trkpt>
      <trkpt lat="49.66054" lon="4.98347">
        <ele>163.56</ele>
        <time>2020-06-27T11:48:34Z</time>
      </trkpt>
      <trkpt lat="49.66062" lon="4.9833">
        <ele>163.56</ele>
        <time>2020-06-27T11:48:48Z</time>
      </trkpt>
      <trkpt lat="49.66072" lon="4.98311">
        <ele>163.56</ele>
        <time>2020-06-27T11:49:03Z</time>
      </trkpt>
      <trkpt lat="49.66081" lon="4.98297">
        <ele>163.08</ele>
        <time>2020-06-27T11:49:15Z</time>
      </trkpt>
      <trkpt lat="49.66089" lon="4.98281">
        <ele>164.04</ele>
        <time>2020-06-27T11:49:27Z</time>
      </trkpt>
      <trkpt lat="49.66093" lon="4.98273">
        <ele>164.04</ele>
        <time>2020-06-27T11:49:34Z</time>
      </trkpt>
      <trkpt lat="49.661" lon="4.98259">
        <ele>164.04</ele>
        <time>2020-06-27T11:49:45Z</time>
      </trkpt>
      <trkpt lat="49.66111" lon="4.98239">
        <ele>165.96</ele>
        <time>2020-06-27T11:50:00Z</time>
      </trkpt>
      <trkpt lat="49.6612" lon="4.98223">
        <ele>166.93</ele>
        <time>2020-06-27T11:50:13Z</time>
      </trkpt>
      <trkpt lat="49.66128" lon="4.98207">
        <ele>166.45</ele>
        <time>2020-06-27T11:50:27Z</time>
      </trkpt>
      <trkpt lat="49.66138" lon="4.98188">
        <ele>165.96</ele>
        <time>2020-06-27T11:50:42Z</time>
      </trkpt>
      <trkpt lat="49.66147" lon="4.98173">
        <ele>165.96</ele>
        <time>2020-06-27T11:50:54Z</time>
      </trkpt>
      <trkpt lat="49.66156" lon="4.98155">
        <ele>165.96</ele>
        <time>2020-06-27T11:51:08Z</time>
      </trkpt>
      <trkpt lat="49.66164" lon="4.98139">
        <ele>166.45</ele>
        <time>2020-06-27T11:51:22Z</time>
      </trkpt>
      <trkpt lat="49.66172" lon="4.98122">
        <ele>167.41</ele>
        <time>2020-06-27T11:51:35Z</time>
      </trkpt>
      <trkpt lat="49.66181" lon="4.98107">
        <ele>168.85</ele>
        <time>2020-06-27T11:51:47Z</time>
      </trkpt>
      <trkpt lat="49.66186" lon="4.98097">
        <ele>168.85</ele>
        <time>2020-06-27T11:51:59Z</time>
      </trkpt>
      <trkpt lat="49.66194" lon="4.98082">
        <ele>167.41</ele>
        <time>2020-06-27T11:52:13Z</time>
      </trkpt>
      <trkpt lat="49.66204" lon="4.98064">
        <ele>167.41</ele>
        <time>2020-06-27T11:52:26Z</time>
      </trkpt>
      <trkpt lat="49.66215" lon="4.98048">
        <ele>168.85</ele>
        <time>2020-06-27T11:52:39Z</time>
      </trkpt>
      <trkpt lat="49.66224" lon="4.98031">
        <ele>169.81</ele>
        <time>2020-06-27T11:52:52Z</time>
      </trkpt>
      <trkpt lat="49.66233" lon="4.98017">
        <ele>169.33</ele>
        <time>2020-06-27T11:53:04Z</time>
      </trkpt>
      <trkpt lat="49.66242" lon="4.98">
        <ele>170.29</ele>
        <time>2020-06-27T11:53:16Z</time>
      </trkpt>
      <trkpt lat="49.66245" lon="4.97992">
        <ele>170.77</ele>
        <time>2020-06-27T11:53:23Z</time>
      </trkpt>
      <trkpt lat="49.66247" lon="4.9799">
        <ele>170.77</ele>
        <time>2020-06-27T11:53:25Z</time>
      </trkpt>
      <trkpt lat="49.66256" lon="4.97973">
        <ele>173.17</ele>
        <time>2020-06-27T11:53:38Z</time>
      </trkpt>
      <trkpt lat="49.66264" lon="4.97955">
        <ele>174.62</ele>
        <time>2020-06-27T11:53:52Z</time>
      </trkpt>
      <trkpt lat="49.66267" lon="4.97949">
        <ele>174.14</ele>
        <time>2020-06-27T11:53:57Z</time>
      </trkpt>
      <trkpt lat="49.66277" lon="4.97932">
        <ele>172.69</ele>
        <time>2020-06-27T11:54:10Z</time>
      </trkpt>
      <trkpt lat="49.66285" lon="4.97915">
        <ele>173.17</ele>
        <time>2020-06-27T11:54:25Z</time>
      </trkpt>
      <trkpt lat="49.66294" lon="4.97898">
        <ele>173.17</ele>
        <time>2020-06-27T11:54:39Z</time>
      </trkpt>
      <trkpt lat="49.66303" lon="4.97881">
        <ele>174.14</ele>
        <time>2020-06-27T11:54:52Z</time>
      </trkpt>
      <trkpt lat="49.66313" lon="4.97863">
        <ele>173.66</ele>
        <time>2020-06-27T11:55:06Z</time>
      </trkpt>
      <trkpt lat="49.66321" lon="4.97846">
        <ele>172.21</ele>
        <time>2020-06-27T11:55:20Z</time>
      </trkpt>
      <trkpt lat="49.66326" lon="4.97835">
        <ele>172.21</ele>
        <time>2020-06-27T11:55:29Z</time>
      </trkpt>
      <trkpt lat="49.66337" lon="4.97817">
        <ele>172.69</ele>
        <time>2020-06-27T11:55:42Z</time>
      </trkpt>
      <trkpt lat="49.66345" lon="4.978">
        <ele>172.69</ele>
        <time>2020-06-27T11:55:55Z</time>
      </trkpt>
      <trkpt lat="49.66355" lon="4.97784">
        <ele>173.17</ele>
        <time>2020-06-27T11:56:10Z</time>
      </trkpt>
      <trkpt lat="49.66364" lon="4.97767">
        <ele>175.1</ele>
        <time>2020-06-27T11:56:23Z</time>
      </trkpt>
      <trkpt lat="49.66372" lon="4.97749">
        <ele>175.1</ele>
        <time>2020-06-27T11:56:37Z</time>
      </trkpt>
      <trkpt lat="49.6638" lon="4.97733">
        <ele>176.06</ele>
        <time>2020-06-27T11:56:49Z</time>
      </trkpt>
      <trkpt lat="49.66388" lon="4.97718">
        <ele>176.06</ele>
        <time>2020-06-27T11:57:00Z</time>
      </trkpt>
      <trkpt lat="49.66397" lon="4.97702">
        <ele>177.02</ele>
        <time>2020-06-27T11:57:12Z</time>
      </trkpt>
      <trkpt lat="49.66404" lon="4.97685">
        <ele>176.54</ele>
        <time>2020-06-27T11:57:26Z</time>
      </trkpt>
      <trkpt lat="49.66414" lon="4.97669">
        <ele>177.02</ele>
        <time>2020-06-27T11:57:40Z</time>
      </trkpt>
      <trkpt lat="49.66421" lon="4.97652">
        <ele>177.5</ele>
        <time>2020-06-27T11:57:53Z</time>
      </trkpt>
      <trkpt lat="49.66429" lon="4.97638">
        <ele>179.42</ele>
        <time>2020-06-27T11:58:04Z</time>
      </trkpt>
      <trkpt lat="49.66437" lon="4.9762">
        <ele>177.98</ele>
        <time>2020-06-27T11:58:17Z</time>
      </trkpt>
      <trkpt lat="49.66445" lon="4.97605">
        <ele>176.54</ele>
        <time>2020-06-27T11:58:31Z</time>
      </trkpt>
      <trkpt lat="49.66454" lon="4.97589">
        <ele>175.58</ele>
        <time>2020-06-27T11:58:44Z</time>
      </trkpt>
      <trkpt lat="49.66463" lon="4.97572">
        <ele>174.14</ele>
        <time>2020-06-27T11:58:57Z</time>
      </trkpt>
      <trkpt lat="49.66472" lon="4.97554">
        <ele>172.69</ele>
        <time>2020-06-27T11:59:11Z</time>
      </trkpt>
      <trkpt lat="49.6648" lon="4.97539">
        <ele>171.25</ele>
        <time>2020-06-27T11:59:26Z</time>
      </trkpt>
      <trkpt lat="49.66488" lon="4.97525">
        <ele>170.77</ele>
        <time>2020-06-27T11:59:38Z</time>
      </trkpt>
      <trkpt lat="49.66499" lon="4.97505">
        <ele>170.29</ele>
        <time>2020-06-27T11:59:53Z</time>
      </trkpt>
      <trkpt lat="49.66507" lon="4.9749">
        <ele>170.77</ele>
        <time>2020-06-27T12:00:06Z</time>
      </trkpt>
      <trkpt lat="49.66517" lon="4.97472">
        <ele>170.77</ele>
        <time>2020-06-27T12:00:20Z</time>
      </trkpt>
      <trkpt lat="49.66525" lon="4.97457">
        <ele>171.25</ele>
        <time>2020-06-27T12:00:31Z</time>
      </trkpt>
      <trkpt lat="49.6653" lon="4.97439">
        <ele>170.77</ele>
        <time>2020-06-27T12:00:44Z</time>
      </trkpt>
      <trkpt lat="49.66534" lon="4.9743">
        <ele>167.41</ele>
        <time>2020-06-27T12:00:53Z</time>
      </trkpt>
      <trkpt lat="49.66538" lon="4.97422">
        <ele>165.48</ele>
        <time>2020-06-27T12:00:59Z</time>
      </trkpt>
      <trkpt lat="49.66542" lon="4.97415">
        <ele>164.52</ele>
        <time>2020-06-27T12:01:07Z</time>
      </trkpt>
      <trkpt lat="49.66547" lon="4.97408">
        <ele>164.52</ele>
        <time>2020-06-27T12:01:12Z</time>
      </trkpt>
      <trkpt lat="49.66557" lon="4.9739">
        <ele>162.12</ele>
        <time>2020-06-27T12:01:27Z</time>
      </trkpt>
      <trkpt lat="49.66564" lon="4.97375">
        <ele>160.2</ele>
        <time>2020-06-27T12:01:40Z</time>
      </trkpt>
      <trkpt lat="49.66572" lon="4.97354">
        <ele>158.27</ele>
        <time>2020-06-27T12:01:54Z</time>
      </trkpt>
      <trkpt lat="49.66582" lon="4.97338">
        <ele>158.27</ele>
        <time>2020-06-27T12:02:07Z</time>
      </trkpt>
      <trkpt lat="49.66592" lon="4.9732">
        <ele>159.72</ele>
        <time>2020-06-27T12:02:20Z</time>
      </trkpt>
      <trkpt lat="49.66602" lon="4.97302">
        <ele>161.64</ele>
        <time>2020-06-27T12:02:33Z</time>
      </trkpt>
      <trkpt lat="49.66609" lon="4.97283">
        <ele>163.08</ele>
        <time>2020-06-27T12:02:47Z</time>
      </trkpt>
      <trkpt lat="49.6661" lon="4.97281">
        <ele>163.08</ele>
        <time>2020-06-27T12:02:49Z</time>
      </trkpt>
      <trkpt lat="49.6662" lon="4.97263">
        <ele>163.56</ele>
        <time>2020-06-27T12:03:03Z</time>
      </trkpt>
      <trkpt lat="49.66628" lon="4.97244">
        <ele>163.56</ele>
        <time>2020-06-27T12:03:17Z</time>
      </trkpt>
      <trkpt lat="49.6663" lon="4.9724">
        <ele>163.56</ele>
        <time>2020-06-27T12:03:19Z</time>
      </trkpt>
      <trkpt lat="49.66637" lon="4.9722">
        <ele>164.52</ele>
        <time>2020-06-27T12:03:33Z</time>
      </trkpt>
      <trkpt lat="49.66643" lon="4.97199">
        <ele>165.96</ele>
        <time>2020-06-27T12:03:47Z</time>
      </trkpt>
      <trkpt lat="49.66651" lon="4.97175">
        <ele>166.45</ele>
        <time>2020-06-27T12:04:02Z</time>
      </trkpt>
      <trkpt lat="49.66658" lon="4.97156">
        <ele>167.41</ele>
        <time>2020-06-27T12:04:15Z</time>
      </trkpt>
      <trkpt lat="49.6666" lon="4.97147">
        <ele>167.41</ele>
        <time>2020-06-27T12:04:22Z</time>
      </trkpt>
      <trkpt lat="49.66667" lon="4.97125">
        <ele>166.45</ele>
        <time>2020-06-27T12:04:37Z</time>
      </trkpt>
      <trkpt lat="49.66673" lon="4.97108">
        <ele>165</ele>
        <time>2020-06-27T12:04:49Z</time>
      </trkpt>
      <trkpt lat="49.66679" lon="4.97089">
        <ele>165.48</ele>
        <time>2020-06-27T12:05:01Z</time>
      </trkpt>
      <trkpt lat="49.66686" lon="4.97072">
        <ele>165</ele>
        <time>2020-06-27T12:05:14Z</time>
      </trkpt>
      <trkpt lat="49.66693" lon="4.97055">
        <ele>164.52</ele>
        <time>2020-06-27T12:05:28Z</time>
      </trkpt>
      <trkpt lat="49.66702" lon="4.97038">
        <ele>162.6</ele>
        <time>2020-06-27T12:05:42Z</time>
      </trkpt>
      <trkpt lat="49.66711" lon="4.97022">
        <ele>161.64</ele>
        <time>2020-06-27T12:05:56Z</time>
      </trkpt>
      <trkpt lat="49.66721" lon="4.97006">
        <ele>162.12</ele>
        <time>2020-06-27T12:06:09Z</time>
      </trkpt>
      <trkpt lat="49.6673" lon="4.96992">
        <ele>160.2</ele>
        <time>2020-06-27T12:06:23Z</time>
      </trkpt>
      <trkpt lat="49.6674" lon="4.96978">
        <ele>158.27</ele>
        <time>2020-06-27T12:06:36Z</time>
      </trkpt>
      <trkpt lat="49.66749" lon="4.96962">
        <ele>157.31</ele>
        <time>2020-06-27T12:06:50Z</time>
      </trkpt>
      <trkpt lat="49.66754" lon="4.96955">
        <ele>155.87</ele>
        <time>2020-06-27T12:06:58Z</time>
      </trkpt>
      <trkpt lat="49.66765" lon="4.9694">
        <ele>154.43</ele>
        <time>2020-06-27T12:07:13Z</time>
      </trkpt>
      <trkpt lat="49.66768" lon="4.96934">
        <ele>152.03</ele>
        <time>2020-06-27T12:07:20Z</time>
      </trkpt>
      <trkpt lat="49.66771" lon="4.9693">
        <ele>151.06</ele>
        <time>2020-06-27T12:07:24Z</time>
      </trkpt>
      <trkpt lat="49.66779" lon="4.96912">
        <ele>147.7</ele>
        <time>2020-06-27T12:07:38Z</time>
      </trkpt>
      <trkpt lat="49.66782" lon="4.96907">
        <ele>147.7</ele>
        <time>2020-06-27T12:07:43Z</time>
      </trkpt>
      <trkpt lat="49.6679" lon="4.96886">
        <ele>148.66</ele>
        <time>2020-06-27T12:07:56Z</time>
      </trkpt>
      <trkpt lat="49.66798" lon="4.96869">
        <ele>151.54</ele>
        <time>2020-06-27T12:08:10Z</time>
      </trkpt>
      <trkpt lat="49.66803" lon="4.9685">
        <ele>153.95</ele>
        <time>2020-06-27T12:08:24Z</time>
      </trkpt>
      <trkpt lat="49.66811" lon="4.96833">
        <ele>153.95</ele>
        <time>2020-06-27T12:08:36Z</time>
      </trkpt>
      <trkpt lat="49.66818" lon="4.96808">
        <ele>153.95</ele>
        <time>2020-06-27T12:08:51Z</time>
      </trkpt>
      <trkpt lat="49.66823" lon="4.96789">
        <ele>153.47</ele>
        <time>2020-06-27T12:09:03Z</time>
      </trkpt>
      <trkpt lat="49.66824" lon="4.96785">
        <ele>152.51</ele>
        <time>2020-06-27T12:09:07Z</time>
      </trkpt>
      <trkpt lat="49.66825" lon="4.96778">
        <ele>152.51</ele>
        <time>2020-06-27T12:09:11Z</time>
      </trkpt>
      <trkpt lat="49.66827" lon="4.96752">
        <ele>151.54</ele>
        <time>2020-06-27T12:09:26Z</time>
      </trkpt>
      <trkpt lat="49.66825" lon="4.96731">
        <ele>149.14</ele>
        <time>2020-06-27T12:09:40Z</time>
      </trkpt>
      <trkpt lat="49.66824" lon="4.9671">
        <ele>148.66</ele>
        <time>2020-06-27T12:09:53Z</time>
      </trkpt>
      <trkpt lat="49.66824" lon="4.96704">
        <ele>148.66</ele>
        <time>2020-06-27T12:09:56Z</time>
      </trkpt>
      <trkpt lat="49.66821" lon="4.96681">
        <ele>150.1</ele>
        <time>2020-06-27T12:10:09Z</time>
      </trkpt>
      <trkpt lat="49.6682" lon="4.96674">
        <ele>151.06</ele>
        <time>2020-06-27T12:10:15Z</time>
      </trkpt>
      <trkpt lat="49.66818" lon="4.96652">
        <ele>152.03</ele>
        <time>2020-06-27T12:10:30Z</time>
      </trkpt>
      <trkpt lat="49.66815" lon="4.96632">
        <ele>152.51</ele>
        <time>2020-06-27T12:10:44Z</time>
      </trkpt>
      <trkpt lat="49.6681" lon="4.9661">
        <ele>151.06</ele>
        <time>2020-06-27T12:10:58Z</time>
      </trkpt>
      <trkpt lat="49.66806" lon="4.9659">
        <ele>150.1</ele>
        <time>2020-06-27T12:11:11Z</time>
      </trkpt>
      <trkpt lat="49.66802" lon="4.96571">
        <ele>148.66</ele>
        <time>2020-06-27T12:11:24Z</time>
      </trkpt>
      <trkpt lat="49.668" lon="4.96563">
        <ele>148.66</ele>
        <time>2020-06-27T12:11:29Z</time>
      </trkpt>
      <trkpt lat="49.66797" lon="4.96541">
        <ele>149.14</ele>
        <time>2020-06-27T12:11:42Z</time>
      </trkpt>
      <trkpt lat="49.66793" lon="4.96519">
        <ele>150.1</ele>
        <time>2020-06-27T12:11:55Z</time>
      </trkpt>
      <trkpt lat="49.66789" lon="4.96497">
        <ele>151.06</ele>
        <time>2020-06-27T12:12:09Z</time>
      </trkpt>
      <trkpt lat="49.66785" lon="4.96476">
        <ele>152.03</ele>
        <time>2020-06-27T12:12:23Z</time>
      </trkpt>
      <trkpt lat="49.66785" lon="4.96474">
        <ele>152.51</ele>
        <time>2020-06-27T12:12:25Z</time>
      </trkpt>
      <trkpt lat="49.66785" lon="4.96464">
        <ele>153.47</ele>
        <time>2020-06-27T12:12:30Z</time>
      </trkpt>
      <trkpt lat="49.6678" lon="4.96441">
        <ele>154.43</ele>
        <time>2020-06-27T12:12:46Z</time>
      </trkpt>
      <trkpt lat="49.66777" lon="4.96422">
        <ele>155.39</ele>
        <time>2020-06-27T12:12:59Z</time>
      </trkpt>
      <trkpt lat="49.66777" lon="4.96414">
        <ele>155.39</ele>
        <time>2020-06-27T12:13:03Z</time>
      </trkpt>
      <trkpt lat="49.66773" lon="4.96403">
        <ele>155.87</ele>
        <time>2020-06-27T12:13:11Z</time>
      </trkpt>
      <trkpt lat="49.66767" lon="4.96378">
        <ele>155.87</ele>
        <time>2020-06-27T12:13:27Z</time>
      </trkpt>
      <trkpt lat="49.66765" lon="4.96369">
        <ele>155.87</ele>
        <time>2020-06-27T12:13:33Z</time>
      </trkpt>
      <trkpt lat="49.66765" lon="4.96343">
        <ele>154.91</ele>
        <time>2020-06-27T12:13:48Z</time>
      </trkpt>
      <trkpt lat="49.66764" lon="4.96322">
        <ele>154.43</ele>
        <time>2020-06-27T12:14:01Z</time>
      </trkpt>
      <trkpt lat="49.66765" lon="4.96297">
        <ele>154.43</ele>
        <time>2020-06-27T12:14:15Z</time>
      </trkpt>
      <trkpt lat="49.66765" lon="4.96292">
        <ele>153.95</ele>
        <time>2020-06-27T12:14:20Z</time>
      </trkpt>
      <trkpt lat="49.6677" lon="4.96267">
        <ele>154.91</ele>
        <time>2020-06-27T12:14:37Z</time>
      </trkpt>
      <trkpt lat="49.66771" lon="4.96264">
        <ele>155.39</ele>
        <time>2020-06-27T12:14:40Z</time>
      </trkpt>
      <trkpt lat="49.66776" lon="4.9624">
        <ele>155.87</ele>
        <time>2020-06-27T12:14:56Z</time>
      </trkpt>
      <trkpt lat="49.66782" lon="4.96218">
        <ele>156.35</ele>
        <time>2020-06-27T12:15:10Z</time>
      </trkpt>
      <trkpt lat="49.66788" lon="4.96199">
        <ele>155.87</ele>
        <time>2020-06-27T12:15:23Z</time>
      </trkpt>
      <trkpt lat="49.66792" lon="4.96178">
        <ele>153.47</ele>
        <time>2020-06-27T12:15:36Z</time>
      </trkpt>
      <trkpt lat="49.66796" lon="4.96159">
        <ele>153.95</ele>
        <time>2020-06-27T12:15:48Z</time>
      </trkpt>
      <trkpt lat="49.66801" lon="4.9614">
        <ele>152.99</ele>
        <time>2020-06-27T12:16:01Z</time>
      </trkpt>
      <trkpt lat="49.66808" lon="4.96121">
        <ele>152.51</ele>
        <time>2020-06-27T12:16:15Z</time>
      </trkpt>
      <trkpt lat="49.66816" lon="4.96103">
        <ele>153.95</ele>
        <time>2020-06-27T12:16:29Z</time>
      </trkpt>
      <trkpt lat="49.66821" lon="4.96092">
        <ele>155.39</ele>
        <time>2020-06-27T12:16:36Z</time>
      </trkpt>
      <trkpt lat="49.6683" lon="4.96072">
        <ele>156.83</ele>
        <time>2020-06-27T12:16:51Z</time>
      </trkpt>
      <trkpt lat="49.66838" lon="4.96053">
        <ele>156.83</ele>
        <time>2020-06-27T12:17:04Z</time>
      </trkpt>
      <trkpt lat="49.66848" lon="4.96035">
        <ele>157.79</ele>
        <time>2020-06-27T12:17:17Z</time>
      </trkpt>
      <trkpt lat="49.66855" lon="4.96014">
        <ele>158.27</ele>
        <time>2020-06-27T12:17:31Z</time>
      </trkpt>
      <trkpt lat="49.66862" lon="4.95995">
        <ele>158.75</ele>
        <time>2020-06-27T12:17:43Z</time>
      </trkpt>
      <trkpt lat="49.66869" lon="4.95977">
        <ele>158.27</ele>
        <time>2020-06-27T12:17:57Z</time>
      </trkpt>
      <trkpt lat="49.66874" lon="4.95958">
        <ele>158.27</ele>
        <time>2020-06-27T12:18:11Z</time>
      </trkpt>
      <trkpt lat="49.66872" lon="4.95957">
        <ele>158.27</ele>
        <time>2020-06-27T12:18:15Z</time>
      </trkpt>
      <trkpt lat="49.66865" lon="4.95968">
        <ele>159.72</ele>
        <time>2020-06-27T12:18:27Z</time>
      </trkpt>
      <trkpt lat="49.66859" lon="4.95983">
        <ele>160.68</ele>
        <time>2020-06-27T12:18:39Z</time>
      </trkpt>
      <trkpt lat="49.66854" lon="4.95996">
        <ele>161.64</ele>
        <time>2020-06-27T12:18:48Z</time>
      </trkpt>
      <trkpt lat="49.66845" lon="4.96012">
        <ele>162.12</ele>
        <time>2020-06-27T12:19:01Z</time>
      </trkpt>
      <trkpt lat="49.66841" lon="4.96015">
        <ele>163.08</ele>
        <time>2020-06-27T12:19:07Z</time>
      </trkpt>
      <trkpt lat="49.66834" lon="4.96013">
        <ele>162.6</ele>
        <time>2020-06-27T12:19:16Z</time>
      </trkpt>
      <trkpt lat="49.66832" lon="4.96011">
        <ele>163.08</ele>
        <time>2020-06-27T12:19:20Z</time>
      </trkpt>
      <trkpt lat="49.66828" lon="4.96009">
        <ele>163.08</ele>
        <time>2020-06-27T12:19:27Z</time>
      </trkpt>
      <trkpt lat="49.66827" lon="4.96006">
        <ele>163.08</ele>
        <time>2020-06-27T12:19:43Z</time>
      </trkpt>
      <trkpt lat="49.66828" lon="4.96003">
        <ele>162.6</ele>
        <time>2020-06-27T12:19:47Z</time>
      </trkpt>
      <trkpt lat="49.66829" lon="4.95992">
        <ele>163.08</ele>
        <time>2020-06-27T12:19:56Z</time>
      </trkpt>
      <trkpt lat="49.66829" lon="4.95968">
        <ele>162.6</ele>
        <time>2020-06-27T12:20:11Z</time>
      </trkpt>
      <trkpt lat="49.6683" lon="4.95964">
        <ele>162.6</ele>
        <time>2020-06-27T12:20:15Z</time>
      </trkpt>
      <trkpt lat="49.66836" lon="4.95946">
        <ele>162.6</ele>
        <time>2020-06-27T12:20:27Z</time>
      </trkpt>
      <trkpt lat="49.66842" lon="4.95925">
        <ele>162.12</ele>
        <time>2020-06-27T12:20:40Z</time>
      </trkpt>
      <trkpt lat="49.66847" lon="4.95906">
        <ele>161.16</ele>
        <time>2020-06-27T12:20:53Z</time>
      </trkpt>
      <trkpt lat="49.66855" lon="4.95889">
        <ele>161.64</ele>
        <time>2020-06-27T12:21:05Z</time>
      </trkpt>
      <trkpt lat="49.66855" lon="4.95883">
        <ele>161.16</ele>
        <time>2020-06-27T12:21:10Z</time>
      </trkpt>
      <trkpt lat="49.66852" lon="4.95874">
        <ele>161.16</ele>
        <time>2020-06-27T12:21:16Z</time>
      </trkpt>
      <trkpt lat="49.66849" lon="4.95862">
        <ele>162.12</ele>
        <time>2020-06-27T12:21:26Z</time>
      </trkpt>
      <trkpt lat="49.66837" lon="4.95843">
        <ele>163.08</ele>
        <time>2020-06-27T12:21:42Z</time>
      </trkpt>
      <trkpt lat="49.66827" lon="4.95836">
        <ele>163.56</ele>
        <time>2020-06-27T12:21:52Z</time>
      </trkpt>
      <trkpt lat="49.66818" lon="4.95827">
        <ele>165</ele>
        <time>2020-06-27T12:22:04Z</time>
      </trkpt>
      <trkpt lat="49.66809" lon="4.95816">
        <ele>167.41</ele>
        <time>2020-06-27T12:22:16Z</time>
      </trkpt>
      <trkpt lat="49.66804" lon="4.95809">
        <ele>168.37</ele>
        <time>2020-06-27T12:22:21Z</time>
      </trkpt>
      <trkpt lat="49.66798" lon="4.95805">
        <ele>169.33</ele>
        <time>2020-06-27T12:22:30Z</time>
      </trkpt>
      <trkpt lat="49.66785" lon="4.95788">
        <ele>170.29</ele>
        <time>2020-06-27T12:22:43Z</time>
      </trkpt>
      <trkpt lat="49.66771" lon="4.95769">
        <ele>170.77</ele>
        <time>2020-06-27T12:22:57Z</time>
      </trkpt>
      <trkpt lat="49.66758" lon="4.95751">
        <ele>168.85</ele>
        <time>2020-06-27T12:23:11Z</time>
      </trkpt>
      <trkpt lat="49.66754" lon="4.95745">
        <ele>168.37</ele>
        <time>2020-06-27T12:23:18Z</time>
      </trkpt>
      <trkpt lat="49.66754" lon="4.9574">
        <ele>168.37</ele>
        <time>2020-06-27T12:23:21Z</time>
      </trkpt>
      <trkpt lat="49.66759" lon="4.95718">
        <ele>170.77</ele>
        <time>2020-06-27T12:23:34Z</time>
      </trkpt>
      <trkpt lat="49.66761" lon="4.95709">
        <ele>170.29</ele>
        <time>2020-06-27T12:23:40Z</time>
      </trkpt>
      <trkpt lat="49.66766" lon="4.95697">
        <ele>169.33</ele>
        <time>2020-06-27T12:23:46Z</time>
      </trkpt>
      <trkpt lat="49.66777" lon="4.95675">
        <ele>168.37</ele>
        <time>2020-06-27T12:24:01Z</time>
      </trkpt>
      <trkpt lat="49.66785" lon="4.95658">
        <ele>165.96</ele>
        <time>2020-06-27T12:24:14Z</time>
      </trkpt>
      <trkpt lat="49.66788" lon="4.95647">
        <ele>163.56</ele>
        <time>2020-06-27T12:24:22Z</time>
      </trkpt>
      <trkpt lat="49.66793" lon="4.95629">
        <ele>161.16</ele>
        <time>2020-06-27T12:24:36Z</time>
      </trkpt>
      <trkpt lat="49.66796" lon="4.95622">
        <ele>160.68</ele>
        <time>2020-06-27T12:24:42Z</time>
      </trkpt>
      <trkpt lat="49.66801" lon="4.95611">
        <ele>161.64</ele>
        <time>2020-06-27T12:24:48Z</time>
      </trkpt>
      <trkpt lat="49.6681" lon="4.95591">
        <ele>163.56</ele>
        <time>2020-06-27T12:25:02Z</time>
      </trkpt>
      <trkpt lat="49.66817" lon="4.95574">
        <ele>165</ele>
        <time>2020-06-27T12:25:15Z</time>
      </trkpt>
      <trkpt lat="49.66818" lon="4.95573">
        <ele>164.52</ele>
        <time>2020-06-27T12:25:16Z</time>
      </trkpt>
      <trkpt lat="49.66824" lon="4.95557">
        <ele>164.04</ele>
        <time>2020-06-27T12:25:28Z</time>
      </trkpt>
      <trkpt lat="49.66828" lon="4.95548">
        <ele>164.04</ele>
        <time>2020-06-27T12:25:33Z</time>
      </trkpt>
      <trkpt lat="49.66833" lon="4.95538">
        <ele>165</ele>
        <time>2020-06-27T12:25:41Z</time>
      </trkpt>
      <trkpt lat="49.66842" lon="4.95522">
        <ele>167.41</ele>
        <time>2020-06-27T12:25:52Z</time>
      </trkpt>
      <trkpt lat="49.66847" lon="4.95506">
        <ele>169.33</ele>
        <time>2020-06-27T12:26:04Z</time>
      </trkpt>
      <trkpt lat="49.66852" lon="4.95492">
        <ele>167.89</ele>
        <time>2020-06-27T12:26:14Z</time>
      </trkpt>
      <trkpt lat="49.66849" lon="4.95483">
        <ele>166.93</ele>
        <time>2020-06-27T12:26:25Z</time>
      </trkpt>
      <trkpt lat="49.66849" lon="4.95483">
        <ele>166.45</ele>
        <time>2020-06-27T12:26:27Z</time>
      </trkpt>
      <trkpt lat="49.66846" lon="4.95479">
        <ele>165.96</ele>
        <time>2020-06-27T12:26:33Z</time>
      </trkpt>
      <trkpt lat="49.66831" lon="4.95471">
        <ele>165</ele>
        <time>2020-06-27T12:26:47Z</time>
      </trkpt>
      <trkpt lat="49.6683" lon="4.95471">
        <ele>165</ele>
        <time>2020-06-27T12:26:49Z</time>
      </trkpt>
      <trkpt lat="49.66825" lon="4.95469">
        <ele>164.04</ele>
        <time>2020-06-27T12:26:53Z</time>
      </trkpt>
      <trkpt lat="49.66815" lon="4.95463">
        <ele>163.56</ele>
        <time>2020-06-27T12:27:04Z</time>
      </trkpt>
      <trkpt lat="49.66803" lon="4.95458">
        <ele>162.6</ele>
        <time>2020-06-27T12:27:17Z</time>
      </trkpt>
      <trkpt lat="49.66799" lon="4.95456">
        <ele>162.6</ele>
        <time>2020-06-27T12:27:19Z</time>
      </trkpt>
      <trkpt lat="49.66788" lon="4.95453">
        <ele>161.16</ele>
        <time>2020-06-27T12:27:32Z</time>
      </trkpt>
      <trkpt lat="49.66771" lon="4.95441">
        <ele>159.72</ele>
        <time>2020-06-27T12:27:48Z</time>
      </trkpt>
      <trkpt lat="49.66752" lon="4.9544">
        <ele>164.04</ele>
        <time>2020-06-27T12:28:02Z</time>
      </trkpt>
      <trkpt lat="49.66743" lon="4.95436">
        <ele>163.56</ele>
        <time>2020-06-27T12:28:09Z</time>
      </trkpt>
      <trkpt lat="49.66734" lon="4.95434">
        <ele>166.45</ele>
        <time>2020-06-27T12:28:22Z</time>
      </trkpt>
      <trkpt lat="49.66732" lon="4.95432">
        <ele>166.45</ele>
        <time>2020-06-27T12:28:24Z</time>
      </trkpt>
      <trkpt lat="49.66714" lon="4.95427">
        <ele>167.89</ele>
        <time>2020-06-27T12:28:38Z</time>
      </trkpt>
      <trkpt lat="49.667" lon="4.9542">
        <ele>168.85</ele>
        <time>2020-06-27T12:28:50Z</time>
      </trkpt>
      <trkpt lat="49.66683" lon="4.95406">
        <ele>169.33</ele>
        <time>2020-06-27T12:29:06Z</time>
      </trkpt>
      <trkpt lat="49.6667" lon="4.95393">
        <ele>168.37</ele>
        <time>2020-06-27T12:29:20Z</time>
      </trkpt>
      <trkpt lat="49.66661" lon="4.95387">
        <ele>166.45</ele>
        <time>2020-06-27T12:29:29Z</time>
      </trkpt>
      <trkpt lat="49.6666" lon="4.95382">
        <ele>165.96</ele>
        <time>2020-06-27T12:29:32Z</time>
      </trkpt>
      <trkpt lat="49.66655" lon="4.95373">
        <ele>167.41</ele>
        <time>2020-06-27T12:29:40Z</time>
      </trkpt>
      <trkpt lat="49.66646" lon="4.95358">
        <ele>168.85</ele>
        <time>2020-06-27T12:29:52Z</time>
      </trkpt>
      <trkpt lat="49.66645" lon="4.95343">
        <ele>169.33</ele>
        <time>2020-06-27T12:30:01Z</time>
      </trkpt>
      <trkpt lat="49.66655" lon="4.95328">
        <ele>170.29</ele>
        <time>2020-06-27T12:30:14Z</time>
      </trkpt>
      <trkpt lat="49.66664" lon="4.95312">
        <ele>169.81</ele>
        <time>2020-06-27T12:30:26Z</time>
      </trkpt>
      <trkpt lat="49.66668" lon="4.95303">
        <ele>169.81</ele>
        <time>2020-06-27T12:30:33Z</time>
      </trkpt>
      <trkpt lat="49.66677" lon="4.95289">
        <ele>170.29</ele>
        <time>2020-06-27T12:30:46Z</time>
      </trkpt>
      <trkpt lat="49.66685" lon="4.95275">
        <ele>170.77</ele>
        <time>2020-06-27T12:30:57Z</time>
      </trkpt>
      <trkpt lat="49.66686" lon="4.95272">
        <ele>170.77</ele>
        <time>2020-06-27T12:31:00Z</time>
      </trkpt>
      <trkpt lat="49.66695" lon="4.95258">
        <ele>171.73</ele>
        <time>2020-06-27T12:31:13Z</time>
      </trkpt>
      <trkpt lat="49.66702" lon="4.95243">
        <ele>174.62</ele>
        <time>2020-06-27T12:31:25Z</time>
      </trkpt>
      <trkpt lat="49.66709" lon="4.95228">
        <ele>175.58</ele>
        <time>2020-06-27T12:31:36Z</time>
      </trkpt>
      <trkpt lat="49.66715" lon="4.95211">
        <ele>176.06</ele>
        <time>2020-06-27T12:31:48Z</time>
      </trkpt>
      <trkpt lat="49.6672" lon="4.95196">
        <ele>175.58</ele>
        <time>2020-06-27T12:32:00Z</time>
      </trkpt>
      <trkpt lat="49.66722" lon="4.95193">
        <ele>175.58</ele>
        <time>2020-06-27T12:32:02Z</time>
      </trkpt>
      <trkpt lat="49.66728" lon="4.95177">
        <ele>176.54</ele>
        <time>2020-06-27T12:32:14Z</time>
      </trkpt>
      <trkpt lat="49.66734" lon="4.95159">
        <ele>177.98</ele>
        <time>2020-06-27T12:32:26Z</time>
      </trkpt>
      <trkpt lat="49.6674" lon="4.95143">
        <ele>178.46</ele>
        <time>2020-06-27T12:32:37Z</time>
      </trkpt>
      <trkpt lat="49.66746" lon="4.95125">
        <ele>178.94</ele>
        <time>2020-06-27T12:32:50Z</time>
      </trkpt>
      <trkpt lat="49.66754" lon="4.95106">
        <ele>179.9</ele>
        <time>2020-06-27T12:33:03Z</time>
      </trkpt>
      <trkpt lat="49.66761" lon="4.95087">
        <ele>181.35</ele>
        <time>2020-06-27T12:33:15Z</time>
      </trkpt>
      <trkpt lat="49.66764" lon="4.95073">
        <ele>182.31</ele>
        <time>2020-06-27T12:33:26Z</time>
      </trkpt>
      <trkpt lat="49.66766" lon="4.95049">
        <ele>181.35</ele>
        <time>2020-06-27T12:33:39Z</time>
      </trkpt>
      <trkpt lat="49.66769" lon="4.9503">
        <ele>181.35</ele>
        <time>2020-06-27T12:33:51Z</time>
      </trkpt>
      <trkpt lat="49.66772" lon="4.9501">
        <ele>181.83</ele>
        <time>2020-06-27T12:34:03Z</time>
      </trkpt>
      <trkpt lat="49.66774" lon="4.9499">
        <ele>181.83</ele>
        <time>2020-06-27T12:34:15Z</time>
      </trkpt>
      <trkpt lat="49.66775" lon="4.94977">
        <ele>181.83</ele>
        <time>2020-06-27T12:34:23Z</time>
      </trkpt>
      <trkpt lat="49.66779" lon="4.94957">
        <ele>182.31</ele>
        <time>2020-06-27T12:34:36Z</time>
      </trkpt>
      <trkpt lat="49.66782" lon="4.94937">
        <ele>182.79</ele>
        <time>2020-06-27T12:34:47Z</time>
      </trkpt>
      <trkpt lat="49.66784" lon="4.94919">
        <ele>182.31</ele>
        <time>2020-06-27T12:34:59Z</time>
      </trkpt>
      <trkpt lat="49.66785" lon="4.94904">
        <ele>182.79</ele>
        <time>2020-06-27T12:35:09Z</time>
      </trkpt>
      <trkpt lat="49.66789" lon="4.94882">
        <ele>184.71</ele>
        <time>2020-06-27T12:35:23Z</time>
      </trkpt>
      <trkpt lat="49.66792" lon="4.94862">
        <ele>185.19</ele>
        <time>2020-06-27T12:35:35Z</time>
      </trkpt>
      <trkpt lat="49.66795" lon="4.94844">
        <ele>184.71</ele>
        <time>2020-06-27T12:35:47Z</time>
      </trkpt>
      <trkpt lat="49.66797" lon="4.94825">
        <ele>185.67</ele>
        <time>2020-06-27T12:35:59Z</time>
      </trkpt>
      <trkpt lat="49.66801" lon="4.94809">
        <ele>187.59</ele>
        <time>2020-06-27T12:36:10Z</time>
      </trkpt>
      <trkpt lat="49.66804" lon="4.94789">
        <ele>189.04</ele>
        <time>2020-06-27T12:36:22Z</time>
      </trkpt>
      <trkpt lat="49.66805" lon="4.94771">
        <ele>190.96</ele>
        <time>2020-06-27T12:36:34Z</time>
      </trkpt>
      <trkpt lat="49.66804" lon="4.94752">
        <ele>191.92</ele>
        <time>2020-06-27T12:36:45Z</time>
      </trkpt>
      <trkpt lat="49.66803" lon="4.94735">
        <ele>192.88</ele>
        <time>2020-06-27T12:36:56Z</time>
      </trkpt>
      <trkpt lat="49.66804" lon="4.94716">
        <ele>193.84</ele>
        <time>2020-06-27T12:37:08Z</time>
      </trkpt>
      <trkpt lat="49.66804" lon="4.94693">
        <ele>193.84</ele>
        <time>2020-06-27T12:37:21Z</time>
      </trkpt>
      <trkpt lat="49.66803" lon="4.94676">
        <ele>193.84</ele>
        <time>2020-06-27T12:37:32Z</time>
      </trkpt>
      <trkpt lat="49.66804" lon="4.94657">
        <ele>194.32</ele>
        <time>2020-06-27T12:37:44Z</time>
      </trkpt>
      <trkpt lat="49.66804" lon="4.94638">
        <ele>194.8</ele>
        <time>2020-06-27T12:37:55Z</time>
      </trkpt>
      <trkpt lat="49.66804" lon="4.94624">
        <ele>194.32</ele>
        <time>2020-06-27T12:38:05Z</time>
      </trkpt>
      <trkpt lat="49.66802" lon="4.94602">
        <ele>193.84</ele>
        <time>2020-06-27T12:38:17Z</time>
      </trkpt>
      <trkpt lat="49.66801" lon="4.94586">
        <ele>194.32</ele>
        <time>2020-06-27T12:38:29Z</time>
      </trkpt>
      <trkpt lat="49.66797" lon="4.94568">
        <ele>195.77</ele>
        <time>2020-06-27T12:38:41Z</time>
      </trkpt>
      <trkpt lat="49.66792" lon="4.9455">
        <ele>196.73</ele>
        <time>2020-06-27T12:38:54Z</time>
      </trkpt>
      <trkpt lat="49.66787" lon="4.94533">
        <ele>197.21</ele>
        <time>2020-06-27T12:39:06Z</time>
      </trkpt>
      <trkpt lat="49.66783" lon="4.94513">
        <ele>198.17</ele>
        <time>2020-06-27T12:39:18Z</time>
      </trkpt>
      <trkpt lat="49.66777" lon="4.94497">
        <ele>199.61</ele>
        <time>2020-06-27T12:39:30Z</time>
      </trkpt>
      <trkpt lat="49.66772" lon="4.94476">
        <ele>201.05</ele>
        <time>2020-06-27T12:39:43Z</time>
      </trkpt>
      <trkpt lat="49.66767" lon="4.94458">
        <ele>202.01</ele>
        <time>2020-06-27T12:39:55Z</time>
      </trkpt>
      <trkpt lat="49.66763" lon="4.94442">
        <ele>203.46</ele>
        <time>2020-06-27T12:40:06Z</time>
      </trkpt>
      <trkpt lat="49.66757" lon="4.94423">
        <ele>205.38</ele>
        <time>2020-06-27T12:40:20Z</time>
      </trkpt>
      <trkpt lat="49.66753" lon="4.94405">
        <ele>206.34</ele>
        <time>2020-06-27T12:40:32Z</time>
      </trkpt>
      <trkpt lat="49.66751" lon="4.94398">
        <ele>207.3</ele>
        <time>2020-06-27T12:40:38Z</time>
      </trkpt>
      <trkpt lat="49.66745" lon="4.94378">
        <ele>208.26</ele>
        <time>2020-06-27T12:40:51Z</time>
      </trkpt>
      <trkpt lat="49.6674" lon="4.9436">
        <ele>209.22</ele>
        <time>2020-06-27T12:41:03Z</time>
      </trkpt>
      <trkpt lat="49.66736" lon="4.94345">
        <ele>210.19</ele>
        <time>2020-06-27T12:41:14Z</time>
      </trkpt>
      <trkpt lat="49.66731" lon="4.94326">
        <ele>211.15</ele>
        <time>2020-06-27T12:41:26Z</time>
      </trkpt>
      <trkpt lat="49.66727" lon="4.9431">
        <ele>212.59</ele>
        <time>2020-06-27T12:41:37Z</time>
      </trkpt>
      <trkpt lat="49.66722" lon="4.94293">
        <ele>214.51</ele>
        <time>2020-06-27T12:41:49Z</time>
      </trkpt>
      <trkpt lat="49.66716" lon="4.94275">
        <ele>215.47</ele>
        <time>2020-06-27T12:42:01Z</time>
      </trkpt>
      <trkpt lat="49.66711" lon="4.9426">
        <ele>215.95</ele>
        <time>2020-06-27T12:42:13Z</time>
      </trkpt>
      <trkpt lat="49.66707" lon="4.94241">
        <ele>217.4</ele>
        <time>2020-06-27T12:42:24Z</time>
      </trkpt>
      <trkpt lat="49.66702" lon="4.94225">
        <ele>217.88</ele>
        <time>2020-06-27T12:42:37Z</time>
      </trkpt>
      <trkpt lat="49.66695" lon="4.94208">
        <ele>218.84</ele>
        <time>2020-06-27T12:42:48Z</time>
      </trkpt>
      <trkpt lat="49.66694" lon="4.94205">
        <ele>218.84</ele>
        <time>2020-06-27T12:42:51Z</time>
      </trkpt>
      <trkpt lat="49.66687" lon="4.94187">
        <ele>219.8</ele>
        <time>2020-06-27T12:43:04Z</time>
      </trkpt>
      <trkpt lat="49.66682" lon="4.94171">
        <ele>220.76</ele>
        <time>2020-06-27T12:43:15Z</time>
      </trkpt>
      <trkpt lat="49.66681" lon="4.94164">
        <ele>221.24</ele>
        <time>2020-06-27T12:43:20Z</time>
      </trkpt>
      <trkpt lat="49.66674" lon="4.94144">
        <ele>223.16</ele>
        <time>2020-06-27T12:43:33Z</time>
      </trkpt>
      <trkpt lat="49.66669" lon="4.94129">
        <ele>224.12</ele>
        <time>2020-06-27T12:43:45Z</time>
      </trkpt>
      <trkpt lat="49.66663" lon="4.9411">
        <ele>225.09</ele>
        <time>2020-06-27T12:43:57Z</time>
      </trkpt>
      <trkpt lat="49.66657" lon="4.94091">
        <ele>225.09</ele>
        <time>2020-06-27T12:44:10Z</time>
      </trkpt>
      <trkpt lat="49.66651" lon="4.94074">
        <ele>226.53</ele>
        <time>2020-06-27T12:44:22Z</time>
      </trkpt>
      <trkpt lat="49.66645" lon="4.94055">
        <ele>226.53</ele>
        <time>2020-06-27T12:44:35Z</time>
      </trkpt>
      <trkpt lat="49.6664" lon="4.94039">
        <ele>226.05</ele>
        <time>2020-06-27T12:44:47Z</time>
      </trkpt>
      <trkpt lat="49.66633" lon="4.94021">
        <ele>226.05</ele>
        <time>2020-06-27T12:44:59Z</time>
      </trkpt>
      <trkpt lat="49.66625" lon="4.94004">
        <ele>225.09</ele>
        <time>2020-06-27T12:45:12Z</time>
      </trkpt>
      <trkpt lat="49.66622" lon="4.93996">
        <ele>225.09</ele>
        <time>2020-06-27T12:45:18Z</time>
      </trkpt>
      <trkpt lat="49.66615" lon="4.93973">
        <ele>225.57</ele>
        <time>2020-06-27T12:45:32Z</time>
      </trkpt>
      <trkpt lat="49.66609" lon="4.93957">
        <ele>226.53</ele>
        <time>2020-06-27T12:45:44Z</time>
      </trkpt>
      <trkpt lat="49.66603" lon="4.93942">
        <ele>227.01</ele>
        <time>2020-06-27T12:45:55Z</time>
      </trkpt>
      <trkpt lat="49.66597" lon="4.93929">
        <ele>227.49</ele>
        <time>2020-06-27T12:46:06Z</time>
      </trkpt>
      <trkpt lat="49.66591" lon="4.93913">
        <ele>228.93</ele>
        <time>2020-06-27T12:46:17Z</time>
      </trkpt>
      <trkpt lat="49.66585" lon="4.93896">
        <ele>230.37</ele>
        <time>2020-06-27T12:46:29Z</time>
      </trkpt>
      <trkpt lat="49.6658" lon="4.9388">
        <ele>232.3</ele>
        <time>2020-06-27T12:46:41Z</time>
      </trkpt>
      <trkpt lat="49.66574" lon="4.93866">
        <ele>232.78</ele>
        <time>2020-06-27T12:46:52Z</time>
      </trkpt>
      <trkpt lat="49.66568" lon="4.9385">
        <ele>233.74</ele>
        <time>2020-06-27T12:47:03Z</time>
      </trkpt>
      <trkpt lat="49.66562" lon="4.93834">
        <ele>235.18</ele>
        <time>2020-06-27T12:47:15Z</time>
      </trkpt>
      <trkpt lat="49.66556" lon="4.9382">
        <ele>236.62</ele>
        <time>2020-06-27T12:47:26Z</time>
      </trkpt>
      <trkpt lat="49.66551" lon="4.93804">
        <ele>239.02</ele>
        <time>2020-06-27T12:47:38Z</time>
      </trkpt>
      <trkpt lat="49.66544" lon="4.93789">
        <ele>240.95</ele>
        <time>2020-06-27T12:47:49Z</time>
      </trkpt>
      <trkpt lat="49.66538" lon="4.93775">
        <ele>241.91</ele>
        <time>2020-06-27T12:48:01Z</time>
      </trkpt>
      <trkpt lat="49.6653" lon="4.93758">
        <ele>241.91</ele>
        <time>2020-06-27T12:48:13Z</time>
      </trkpt>
      <trkpt lat="49.66522" lon="4.93742">
        <ele>243.35</ele>
        <time>2020-06-27T12:48:25Z</time>
      </trkpt>
      <trkpt lat="49.66515" lon="4.93727">
        <ele>244.31</ele>
        <time>2020-06-27T12:48:37Z</time>
      </trkpt>
      <trkpt lat="49.66509" lon="4.93714">
        <ele>244.79</ele>
        <time>2020-06-27T12:48:48Z</time>
      </trkpt>
      <trkpt lat="49.66502" lon="4.937">
        <ele>245.75</ele>
        <time>2020-06-27T12:48:59Z</time>
      </trkpt>
      <trkpt lat="49.66494" lon="4.93685">
        <ele>246.23</ele>
        <time>2020-06-27T12:49:11Z</time>
      </trkpt>
      <trkpt lat="49.66486" lon="4.93673">
        <ele>247.2</ele>
        <time>2020-06-27T12:49:23Z</time>
      </trkpt>
      <trkpt lat="49.66476" lon="4.93656">
        <ele>247.2</ele>
        <time>2020-06-27T12:49:36Z</time>
      </trkpt>
      <trkpt lat="49.66467" lon="4.93644">
        <ele>247.68</ele>
        <time>2020-06-27T12:49:48Z</time>
      </trkpt>
      <trkpt lat="49.66458" lon="4.93629">
        <ele>247.68</ele>
        <time>2020-06-27T12:50:00Z</time>
      </trkpt>
      <trkpt lat="49.66454" lon="4.93625">
        <ele>247.68</ele>
        <time>2020-06-27T12:50:05Z</time>
      </trkpt>
      <trkpt lat="49.66445" lon="4.93611">
        <ele>249.12</ele>
        <time>2020-06-27T12:50:18Z</time>
      </trkpt>
      <trkpt lat="49.66436" lon="4.93599">
        <ele>249.6</ele>
        <time>2020-06-27T12:50:29Z</time>
      </trkpt>
      <trkpt lat="49.66426" lon="4.93588">
        <ele>252</ele>
        <time>2020-06-27T12:50:42Z</time>
      </trkpt>
      <trkpt lat="49.66415" lon="4.93575">
        <ele>254.89</ele>
        <time>2020-06-27T12:50:54Z</time>
      </trkpt>
      <trkpt lat="49.66404" lon="4.93568">
        <ele>257.29</ele>
        <time>2020-06-27T12:51:06Z</time>
      </trkpt>
      <trkpt lat="49.66392" lon="4.9356">
        <ele>260.65</ele>
        <time>2020-06-27T12:51:18Z</time>
      </trkpt>
      <trkpt lat="49.6638" lon="4.93556">
        <ele>262.58</ele>
        <time>2020-06-27T12:51:30Z</time>
      </trkpt>
      <trkpt lat="49.66365" lon="4.93555">
        <ele>262.1</ele>
        <time>2020-06-27T12:51:42Z</time>
      </trkpt>
      <trkpt lat="49.66349" lon="4.93549">
        <ele>261.14</ele>
        <time>2020-06-27T12:51:56Z</time>
      </trkpt>
      <trkpt lat="49.66346" lon="4.93548">
        <ele>261.14</ele>
        <time>2020-06-27T12:52:00Z</time>
      </trkpt>
      <trkpt lat="49.66341" lon="4.93541">
        <ele>260.65</ele>
        <time>2020-06-27T12:52:11Z</time>
      </trkpt>
      <trkpt lat="49.66337" lon="4.93536">
        <ele>262.1</ele>
        <time>2020-06-27T12:52:22Z</time>
      </trkpt>
      <trkpt lat="49.66326" lon="4.93522">
        <ele>264.02</ele>
        <time>2020-06-27T12:52:34Z</time>
      </trkpt>
      <trkpt lat="49.66325" lon="4.93522">
        <ele>264.02</ele>
        <time>2020-06-27T12:52:35Z</time>
      </trkpt>
      <trkpt lat="49.6632" lon="4.93521">
        <ele>264.02</ele>
        <time>2020-06-27T12:52:39Z</time>
      </trkpt>
      <trkpt lat="49.66305" lon="4.93521">
        <ele>261.14</ele>
        <time>2020-06-27T12:52:52Z</time>
      </trkpt>
      <trkpt lat="49.66287" lon="4.93524">
        <ele>260.65</ele>
        <time>2020-06-27T12:53:08Z</time>
      </trkpt>
      <trkpt lat="49.66273" lon="4.9353">
        <ele>261.14</ele>
        <time>2020-06-27T12:53:21Z</time>
      </trkpt>
      <trkpt lat="49.66272" lon="4.93531">
        <ele>261.14</ele>
        <time>2020-06-27T12:53:22Z</time>
      </trkpt>
      <trkpt lat="49.66257" lon="4.93539">
        <ele>263.06</ele>
        <time>2020-06-27T12:53:36Z</time>
      </trkpt>
      <trkpt lat="49.66247" lon="4.93547">
        <ele>264.02</ele>
        <time>2020-06-27T12:53:47Z</time>
      </trkpt>
      <trkpt lat="49.66233" lon="4.93556">
        <ele>264.5</ele>
        <time>2020-06-27T12:54:00Z</time>
      </trkpt>
      <trkpt lat="49.6622" lon="4.93566">
        <ele>264.02</ele>
        <time>2020-06-27T12:54:15Z</time>
      </trkpt>
      <trkpt lat="49.66207" lon="4.93578">
        <ele>264.5</ele>
        <time>2020-06-27T12:54:29Z</time>
      </trkpt>
      <trkpt lat="49.66197" lon="4.93596">
        <ele>269.79</ele>
        <time>2020-06-27T12:54:43Z</time>
      </trkpt>
      <trkpt lat="49.66188" lon="4.93617">
        <ele>274.59</ele>
        <time>2020-06-27T12:54:57Z</time>
      </trkpt>
      <trkpt lat="49.66178" lon="4.93635">
        <ele>275.07</ele>
        <time>2020-06-27T12:55:14Z</time>
      </trkpt>
      <trkpt lat="49.66163" lon="4.93653">
        <ele>278.44</ele>
        <time>2020-06-27T12:55:31Z</time>
      </trkpt>
      <trkpt lat="49.66162" lon="4.93653">
        <ele>277.96</ele>
        <time>2020-06-27T12:55:47Z</time>
      </trkpt>
      <trkpt lat="49.66162" lon="4.93657">
        <ele>276.52</ele>
        <time>2020-06-27T12:56:00Z</time>
      </trkpt>
      <trkpt lat="49.6615" lon="4.93674">
        <ele>276.04</ele>
        <time>2020-06-27T12:56:15Z</time>
      </trkpt>
      <trkpt lat="49.66139" lon="4.93691">
        <ele>277.48</ele>
        <time>2020-06-27T12:56:29Z</time>
      </trkpt>
      <trkpt lat="49.66129" lon="4.93713">
        <ele>278.92</ele>
        <time>2020-06-27T12:56:45Z</time>
      </trkpt>
      <trkpt lat="49.66123" lon="4.93728">
        <ele>279.4</ele>
        <time>2020-06-27T12:57:01Z</time>
      </trkpt>
      <trkpt lat="49.66114" lon="4.9375">
        <ele>276.52</ele>
        <time>2020-06-27T12:57:17Z</time>
      </trkpt>
      <trkpt lat="49.66107" lon="4.9376">
        <ele>272.19</ele>
        <time>2020-06-27T12:57:31Z</time>
      </trkpt>
      <trkpt lat="49.66101" lon="4.9378">
        <ele>267.38</ele>
        <time>2020-06-27T12:57:47Z</time>
      </trkpt>
      <trkpt lat="49.66096" lon="4.93783">
        <ele>265.94</ele>
        <time>2020-06-27T12:57:55Z</time>
      </trkpt>
      <trkpt lat="49.66089" lon="4.93776">
        <ele>264.98</ele>
        <time>2020-06-27T12:58:08Z</time>
      </trkpt>
      <trkpt lat="49.66089" lon="4.93777">
        <ele>264.98</ele>
        <time>2020-06-27T12:58:25Z</time>
      </trkpt>
      <trkpt lat="49.66089" lon="4.93777">
        <ele>264.5</ele>
        <time>2020-06-27T12:58:47Z</time>
      </trkpt>
      <trkpt lat="49.66089" lon="4.93776">
        <ele>264.5</ele>
        <time>2020-06-27T12:59:08Z</time>
      </trkpt>
      <trkpt lat="49.66088" lon="4.93776">
        <ele>263.54</ele>
        <time>2020-06-27T12:59:32Z</time>
      </trkpt>
      <trkpt lat="49.66087" lon="4.93775">
        <ele>263.06</ele>
        <time>2020-06-27T13:00:05Z</time>
      </trkpt>
      <trkpt lat="49.66087" lon="4.93775">
        <ele>263.06</ele>
        <time>2020-06-27T13:00:32Z</time>
      </trkpt>
      <trkpt lat="49.66086" lon="4.93775">
        <ele>262.58</ele>
        <time>2020-06-27T13:01:02Z</time>
      </trkpt>
      <trkpt lat="49.66086" lon="4.93777">
        <ele>262.58</ele>
        <time>2020-06-27T13:01:29Z</time>
      </trkpt>
      <trkpt lat="49.66085" lon="4.93778">
        <ele>262.58</ele>
        <time>2020-06-27T13:01:57Z</time>
      </trkpt>
      <trkpt lat="49.66085" lon="4.93778">
        <ele>262.58</ele>
        <time>2020-06-27T13:02:22Z</time>
      </trkpt>
      <trkpt lat="49.66085" lon="4.93778">
        <ele>262.58</ele>
        <time>2020-06-27T13:02:53Z</time>
      </trkpt>
      <trkpt lat="49.66085" lon="4.93779">
        <ele>263.06</ele>
        <time>2020-06-27T13:03:23Z</time>
      </trkpt>
      <trkpt lat="49.66085" lon="4.9378">
        <ele>263.54</ele>
        <time>2020-06-27T13:03:53Z</time>
      </trkpt>
      <trkpt lat="49.66086" lon="4.9378">
        <ele>263.54</ele>
        <time>2020-06-27T13:04:22Z</time>
      </trkpt>
      <trkpt lat="49.66085" lon="4.9378">
        <ele>264.02</ele>
        <time>2020-06-27T13:04:50Z</time>
      </trkpt>
      <trkpt lat="49.66086" lon="4.9378">
        <ele>263.54</ele>
        <time>2020-06-27T13:05:14Z</time>
      </trkpt>
      <trkpt lat="49.66086" lon="4.93788">
        <ele>261.14</ele>
        <time>2020-06-27T13:05:40Z</time>
      </trkpt>
      <trkpt lat="49.66087" lon="4.93785">
        <ele>262.1</ele>
        <time>2020-06-27T13:06:08Z</time>
      </trkpt>
      <trkpt lat="49.66089" lon="4.93778">
        <ele>263.54</ele>
        <time>2020-06-27T13:06:26Z</time>
      </trkpt>
      <trkpt lat="49.66088" lon="4.93776">
        <ele>263.54</ele>
        <time>2020-06-27T13:06:46Z</time>
      </trkpt>
      <trkpt lat="49.66087" lon="4.93776">
        <ele>262.1</ele>
        <time>2020-06-27T13:07:04Z</time>
      </trkpt>
      <trkpt lat="49.66086" lon="4.93775">
        <ele>262.1</ele>
        <time>2020-06-27T13:07:27Z</time>
      </trkpt>
      <trkpt lat="49.66086" lon="4.93775">
        <ele>263.06</ele>
        <time>2020-06-27T13:08:02Z</time>
      </trkpt>
      <trkpt lat="49.66087" lon="4.93775">
        <ele>263.06</ele>
        <time>2020-06-27T13:08:29Z</time>
      </trkpt>
      <trkpt lat="49.66088" lon="4.93776">
        <ele>263.06</ele>
        <time>2020-06-27T13:08:45Z</time>
      </trkpt>
      <trkpt lat="49.66088" lon="4.93777">
        <ele>264.02</ele>
        <time>2020-06-27T13:09:04Z</time>
      </trkpt>
      <trkpt lat="49.66089" lon="4.9378">
        <ele>263.54</ele>
        <time>2020-06-27T13:09:30Z</time>
      </trkpt>
      <trkpt lat="49.6609" lon="4.93783">
        <ele>263.54</ele>
        <time>2020-06-27T13:09:51Z</time>
      </trkpt>
      <trkpt lat="49.66093" lon="4.93793">
        <ele>264.98</ele>
        <time>2020-06-27T13:10:01Z</time>
      </trkpt>
      <trkpt lat="49.66094" lon="4.93802">
        <ele>264.98</ele>
        <time>2020-06-27T13:10:06Z</time>
      </trkpt>
      <trkpt lat="49.66097" lon="4.9382">
        <ele>263.54</ele>
        <time>2020-06-27T13:10:17Z</time>
      </trkpt>
      <trkpt lat="49.66105" lon="4.93847">
        <ele>261.14</ele>
        <time>2020-06-27T13:10:33Z</time>
      </trkpt>
      <trkpt lat="49.66117" lon="4.93872">
        <ele>261.14</ele>
        <time>2020-06-27T13:10:50Z</time>
      </trkpt>
      <trkpt lat="49.66129" lon="4.93889">
        <ele>257.29</ele>
        <time>2020-06-27T13:11:06Z</time>
      </trkpt>
      <trkpt lat="49.66142" lon="4.93902">
        <ele>251.04</ele>
        <time>2020-06-27T13:11:22Z</time>
      </trkpt>
      <trkpt lat="49.66145" lon="4.93902">
        <ele>249.12</ele>
        <time>2020-06-27T13:11:32Z</time>
      </trkpt>
      <trkpt lat="49.66158" lon="4.93919">
        <ele>246.72</ele>
        <time>2020-06-27T13:11:47Z</time>
      </trkpt>
      <trkpt lat="49.66164" lon="4.93926">
        <ele>246.23</ele>
        <time>2020-06-27T13:11:53Z</time>
      </trkpt>
      <trkpt lat="49.6617" lon="4.93938">
        <ele>247.2</ele>
        <time>2020-06-27T13:12:05Z</time>
      </trkpt>
      <trkpt lat="49.66173" lon="4.93943">
        <ele>248.64</ele>
        <time>2020-06-27T13:12:22Z</time>
      </trkpt>
      <trkpt lat="49.66173" lon="4.93943">
        <ele>248.64</ele>
        <time>2020-06-27T13:12:23Z</time>
      </trkpt>
      <trkpt lat="49.66175" lon="4.93951">
        <ele>248.16</ele>
        <time>2020-06-27T13:12:27Z</time>
      </trkpt>
      <trkpt lat="49.66176" lon="4.93959">
        <ele>247.68</ele>
        <time>2020-06-27T13:12:31Z</time>
      </trkpt>
      <trkpt lat="49.66184" lon="4.93993">
        <ele>247.68</ele>
        <time>2020-06-27T13:12:49Z</time>
      </trkpt>
      <trkpt lat="49.66194" lon="4.94022">
        <ele>244.79</ele>
        <time>2020-06-27T13:13:07Z</time>
      </trkpt>
      <trkpt lat="49.66199" lon="4.94041">
        <ele>242.87</ele>
        <time>2020-06-27T13:13:23Z</time>
      </trkpt>
      <trkpt lat="49.66207" lon="4.9407">
        <ele>239.99</ele>
        <time>2020-06-27T13:13:43Z</time>
      </trkpt>
      <trkpt lat="49.66216" lon="4.94104">
        <ele>238.54</ele>
        <time>2020-06-27T13:14:04Z</time>
      </trkpt>
      <trkpt lat="49.66223" lon="4.94139">
        <ele>236.62</ele>
        <time>2020-06-27T13:14:22Z</time>
      </trkpt>
      <trkpt lat="49.66228" lon="4.94172">
        <ele>233.74</ele>
        <time>2020-06-27T13:14:40Z</time>
      </trkpt>
      <trkpt lat="49.66232" lon="4.94192">
        <ele>231.33</ele>
        <time>2020-06-27T13:14:53Z</time>
      </trkpt>
      <trkpt lat="49.66237" lon="4.94213">
        <ele>231.33</ele>
        <time>2020-06-27T13:15:11Z</time>
      </trkpt>
      <trkpt lat="49.66241" lon="4.94241">
        <ele>228.93</ele>
        <time>2020-06-27T13:15:26Z</time>
      </trkpt>
      <trkpt lat="49.66247" lon="4.94272">
        <ele>227.01</ele>
        <time>2020-06-27T13:15:44Z</time>
      </trkpt>
      <trkpt lat="49.66252" lon="4.94292">
        <ele>225.09</ele>
        <time>2020-06-27T13:16:02Z</time>
      </trkpt>
      <trkpt lat="49.66253" lon="4.94299">
        <ele>224.61</ele>
        <time>2020-06-27T13:16:07Z</time>
      </trkpt>
      <trkpt lat="49.66258" lon="4.9433">
        <ele>221.24</ele>
        <time>2020-06-27T13:16:24Z</time>
      </trkpt>
      <trkpt lat="49.66262" lon="4.94355">
        <ele>217.4</ele>
        <time>2020-06-27T13:16:39Z</time>
      </trkpt>
      <trkpt lat="49.66267" lon="4.9438">
        <ele>216.43</ele>
        <time>2020-06-27T13:16:56Z</time>
      </trkpt>
      <trkpt lat="49.66269" lon="4.94405">
        <ele>215.47</ele>
        <time>2020-06-27T13:17:10Z</time>
      </trkpt>
      <trkpt lat="49.66273" lon="4.94433">
        <ele>212.59</ele>
        <time>2020-06-27T13:17:26Z</time>
      </trkpt>
      <trkpt lat="49.66276" lon="4.94455">
        <ele>211.63</ele>
        <time>2020-06-27T13:17:42Z</time>
      </trkpt>
      <trkpt lat="49.66279" lon="4.94469">
        <ele>212.11</ele>
        <time>2020-06-27T13:17:53Z</time>
      </trkpt>
      <trkpt lat="49.66282" lon="4.94499">
        <ele>210.19</ele>
        <time>2020-06-27T13:18:10Z</time>
      </trkpt>
      <trkpt lat="49.66286" lon="4.9452">
        <ele>208.74</ele>
        <time>2020-06-27T13:18:26Z</time>
      </trkpt>
      <trkpt lat="49.66288" lon="4.94537">
        <ele>209.22</ele>
        <time>2020-06-27T13:18:35Z</time>
      </trkpt>
      <trkpt lat="49.6629" lon="4.94561">
        <ele>207.3</ele>
        <time>2020-06-27T13:18:49Z</time>
      </trkpt>
      <trkpt lat="49.66294" lon="4.94586">
        <ele>207.3</ele>
        <time>2020-06-27T13:19:04Z</time>
      </trkpt>
      <trkpt lat="49.66297" lon="4.94601">
        <ele>205.38</ele>
        <time>2020-06-27T13:19:19Z</time>
      </trkpt>
      <trkpt lat="49.663" lon="4.94632">
        <ele>202.98</ele>
        <time>2020-06-27T13:19:36Z</time>
      </trkpt>
      <trkpt lat="49.66305" lon="4.94655">
        <ele>201.53</ele>
        <time>2020-06-27T13:19:52Z</time>
      </trkpt>
      <trkpt lat="49.66312" lon="4.94679">
        <ele>199.61</ele>
        <time>2020-06-27T13:20:10Z</time>
      </trkpt>
      <trkpt lat="49.66317" lon="4.94693">
        <ele>198.17</ele>
        <time>2020-06-27T13:20:22Z</time>
      </trkpt>
      <trkpt lat="49.66327" lon="4.94715">
        <ele>197.21</ele>
        <time>2020-06-27T13:20:37Z</time>
      </trkpt>
      <trkpt lat="49.66337" lon="4.94733">
        <ele>194.8</ele>
        <time>2020-06-27T13:20:53Z</time>
      </trkpt>
      <trkpt lat="49.66349" lon="4.94753">
        <ele>196.25</ele>
        <time>2020-06-27T13:21:08Z</time>
      </trkpt>
      <trkpt lat="49.66361" lon="4.94774">
        <ele>194.32</ele>
        <time>2020-06-27T13:21:28Z</time>
      </trkpt>
      <trkpt lat="49.66374" lon="4.94794">
        <ele>192.88</ele>
        <time>2020-06-27T13:21:45Z</time>
      </trkpt>
      <trkpt lat="49.66381" lon="4.94801">
        <ele>192.88</ele>
        <time>2020-06-27T13:21:56Z</time>
      </trkpt>
      <trkpt lat="49.66385" lon="4.94808">
        <ele>192.88</ele>
        <time>2020-06-27T13:22:01Z</time>
      </trkpt>
      <trkpt lat="49.66402" lon="4.94826">
        <ele>190.96</ele>
        <time>2020-06-27T13:22:20Z</time>
      </trkpt>
      <trkpt lat="49.66417" lon="4.94839">
        <ele>189.52</ele>
        <time>2020-06-27T13:22:39Z</time>
      </trkpt>
      <trkpt lat="49.66435" lon="4.94856">
        <ele>186.15</ele>
        <time>2020-06-27T13:22:59Z</time>
      </trkpt>
      <trkpt lat="49.66454" lon="4.94871">
        <ele>184.71</ele>
        <time>2020-06-27T13:23:20Z</time>
      </trkpt>
      <trkpt lat="49.66466" lon="4.94881">
        <ele>184.23</ele>
        <time>2020-06-27T13:23:34Z</time>
      </trkpt>
      <trkpt lat="49.66469" lon="4.94884">
        <ele>183.75</ele>
        <time>2020-06-27T13:23:38Z</time>
      </trkpt>
      <trkpt lat="49.66473" lon="4.94891">
        <ele>183.27</ele>
        <time>2020-06-27T13:23:43Z</time>
      </trkpt>
      <trkpt lat="49.66483" lon="4.94908">
        <ele>184.23</ele>
        <time>2020-06-27T13:23:58Z</time>
      </trkpt>
      <trkpt lat="49.66485" lon="4.94912">
        <ele>183.75</ele>
        <time>2020-06-27T13:24:02Z</time>
      </trkpt>
      <trkpt lat="49.66493" lon="4.9494">
        <ele>180.87</ele>
        <time>2020-06-27T13:24:20Z</time>
      </trkpt>
      <trkpt lat="49.66496" lon="4.94964">
        <ele>180.38</ele>
        <time>2020-06-27T13:24:37Z</time>
      </trkpt>
      <trkpt lat="49.66497" lon="4.9499">
        <ele>177.98</ele>
        <time>2020-06-27T13:24:54Z</time>
      </trkpt>
      <trkpt lat="49.66498" lon="4.95016">
        <ele>176.54</ele>
        <time>2020-06-27T13:25:12Z</time>
      </trkpt>
      <trkpt lat="49.66499" lon="4.95039">
        <ele>174.62</ele>
        <time>2020-06-27T13:25:27Z</time>
      </trkpt>
      <trkpt lat="49.66499" lon="4.95045">
        <ele>174.62</ele>
        <time>2020-06-27T13:25:31Z</time>
      </trkpt>
      <trkpt lat="49.66499" lon="4.95069">
        <ele>173.17</ele>
        <time>2020-06-27T13:25:47Z</time>
      </trkpt>
      <trkpt lat="49.66501" lon="4.95084">
        <ele>174.14</ele>
        <time>2020-06-27T13:25:58Z</time>
      </trkpt>
      <trkpt lat="49.66501" lon="4.95091">
        <ele>173.66</ele>
        <time>2020-06-27T13:26:02Z</time>
      </trkpt>
      <trkpt lat="49.66503" lon="4.95114">
        <ele>173.66</ele>
        <time>2020-06-27T13:26:19Z</time>
      </trkpt>
      <trkpt lat="49.66503" lon="4.9512">
        <ele>174.14</ele>
        <time>2020-06-27T13:26:32Z</time>
      </trkpt>
      <trkpt lat="49.66503" lon="4.95136">
        <ele>174.14</ele>
        <time>2020-06-27T13:26:44Z</time>
      </trkpt>
      <trkpt lat="49.66505" lon="4.95143">
        <ele>174.14</ele>
        <time>2020-06-27T13:26:55Z</time>
      </trkpt>
      <trkpt lat="49.66507" lon="4.95153">
        <ele>174.62</ele>
        <time>2020-06-27T13:27:08Z</time>
      </trkpt>
      <trkpt lat="49.66515" lon="4.95183">
        <ele>176.06</ele>
        <time>2020-06-27T13:27:25Z</time>
      </trkpt>
      <trkpt lat="49.66521" lon="4.95202">
        <ele>174.62</ele>
        <time>2020-06-27T13:27:41Z</time>
      </trkpt>
      <trkpt lat="49.66527" lon="4.95219">
        <ele>175.58</ele>
        <time>2020-06-27T13:27:56Z</time>
      </trkpt>
      <trkpt lat="49.66529" lon="4.95231">
        <ele>174.62</ele>
        <time>2020-06-27T13:28:08Z</time>
      </trkpt>
      <trkpt lat="49.66528" lon="4.95238">
        <ele>172.69</ele>
        <time>2020-06-27T13:28:17Z</time>
      </trkpt>
      <trkpt lat="49.66521" lon="4.95248">
        <ele>170.29</ele>
        <time>2020-06-27T13:28:27Z</time>
      </trkpt>
      <trkpt lat="49.66512" lon="4.95271">
        <ele>169.81</ele>
        <time>2020-06-27T13:28:39Z</time>
      </trkpt>
      <trkpt lat="49.66506" lon="4.95292">
        <ele>167.41</ele>
        <time>2020-06-27T13:28:54Z</time>
      </trkpt>
      <trkpt lat="49.665" lon="4.95312">
        <ele>163.56</ele>
        <time>2020-06-27T13:29:09Z</time>
      </trkpt>
      <trkpt lat="49.66492" lon="4.95338">
        <ele>162.6</ele>
        <time>2020-06-27T13:29:25Z</time>
      </trkpt>
      <trkpt lat="49.66488" lon="4.95353">
        <ele>163.56</ele>
        <time>2020-06-27T13:29:35Z</time>
      </trkpt>
      <trkpt lat="49.66485" lon="4.95359">
        <ele>163.56</ele>
        <time>2020-06-27T13:29:39Z</time>
      </trkpt>
      <trkpt lat="49.66479" lon="4.95378">
        <ele>163.08</ele>
        <time>2020-06-27T13:29:53Z</time>
      </trkpt>
      <trkpt lat="49.66472" lon="4.95398">
        <ele>163.08</ele>
        <time>2020-06-27T13:30:06Z</time>
      </trkpt>
      <trkpt lat="49.66468" lon="4.95414">
        <ele>162.12</ele>
        <time>2020-06-27T13:30:17Z</time>
      </trkpt>
      <trkpt lat="49.6646" lon="4.95437">
        <ele>159.72</ele>
        <time>2020-06-27T13:30:33Z</time>
      </trkpt>
      <trkpt lat="49.66461" lon="4.95441">
        <ele>160.2</ele>
        <time>2020-06-27T13:30:36Z</time>
      </trkpt>
      <trkpt lat="49.66468" lon="4.9546">
        <ele>161.64</ele>
        <time>2020-06-27T13:30:49Z</time>
      </trkpt>
      <trkpt lat="49.66474" lon="4.9548">
        <ele>162.12</ele>
        <time>2020-06-27T13:31:03Z</time>
      </trkpt>
      <trkpt lat="49.66481" lon="4.95496">
        <ele>162.12</ele>
        <time>2020-06-27T13:31:15Z</time>
      </trkpt>
      <trkpt lat="49.66489" lon="4.95505">
        <ele>161.64</ele>
        <time>2020-06-27T13:31:26Z</time>
      </trkpt>
      <trkpt lat="49.66496" lon="4.95501">
        <ele>160.68</ele>
        <time>2020-06-27T13:31:34Z</time>
      </trkpt>
      <trkpt lat="49.66505" lon="4.95486">
        <ele>163.08</ele>
        <time>2020-06-27T13:31:48Z</time>
      </trkpt>
      <trkpt lat="49.66513" lon="4.95481">
        <ele>164.04</ele>
        <time>2020-06-27T13:31:54Z</time>
      </trkpt>
      <trkpt lat="49.66529" lon="4.95476">
        <ele>164.04</ele>
        <time>2020-06-27T13:32:10Z</time>
      </trkpt>
      <trkpt lat="49.66537" lon="4.95478">
        <ele>165.96</ele>
        <time>2020-06-27T13:32:22Z</time>
      </trkpt>
      <trkpt lat="49.66552" lon="4.95484">
        <ele>169.81</ele>
        <time>2020-06-27T13:32:35Z</time>
      </trkpt>
      <trkpt lat="49.66556" lon="4.95488">
        <ele>169.81</ele>
        <time>2020-06-27T13:32:39Z</time>
      </trkpt>
      <trkpt lat="49.66571" lon="4.95503">
        <ele>167.89</ele>
        <time>2020-06-27T13:32:55Z</time>
      </trkpt>
      <trkpt lat="49.66574" lon="4.95506">
        <ele>168.37</ele>
        <time>2020-06-27T13:32:58Z</time>
      </trkpt>
      <trkpt lat="49.66591" lon="4.95515">
        <ele>167.89</ele>
        <time>2020-06-27T13:33:14Z</time>
      </trkpt>
      <trkpt lat="49.66608" lon="4.95528">
        <ele>166.45</ele>
        <time>2020-06-27T13:33:31Z</time>
      </trkpt>
      <trkpt lat="49.66624" lon="4.95544">
        <ele>164.52</ele>
        <time>2020-06-27T13:33:47Z</time>
      </trkpt>
      <trkpt lat="49.66641" lon="4.95561">
        <ele>162.6</ele>
        <time>2020-06-27T13:34:01Z</time>
      </trkpt>
      <trkpt lat="49.6665" lon="4.95572">
        <ele>161.16</ele>
        <time>2020-06-27T13:34:15Z</time>
      </trkpt>
      <trkpt lat="49.66666" lon="4.95586">
        <ele>159.24</ele>
        <time>2020-06-27T13:34:30Z</time>
      </trkpt>
      <trkpt lat="49.66678" lon="4.95602">
        <ele>157.79</ele>
        <time>2020-06-27T13:34:46Z</time>
      </trkpt>
      <trkpt lat="49.66691" lon="4.95621">
        <ele>156.83</ele>
        <time>2020-06-27T13:35:02Z</time>
      </trkpt>
      <trkpt lat="49.66701" lon="4.95634">
        <ele>155.39</ele>
        <time>2020-06-27T13:35:14Z</time>
      </trkpt>
      <trkpt lat="49.66714" lon="4.95654">
        <ele>158.27</ele>
        <time>2020-06-27T13:35:29Z</time>
      </trkpt>
      <trkpt lat="49.66716" lon="4.95656">
        <ele>159.24</ele>
        <time>2020-06-27T13:35:31Z</time>
      </trkpt>
      <trkpt lat="49.66723" lon="4.95684">
        <ele>161.64</ele>
        <time>2020-06-27T13:35:47Z</time>
      </trkpt>
      <trkpt lat="49.66724" lon="4.95689">
        <ele>162.12</ele>
        <time>2020-06-27T13:35:52Z</time>
      </trkpt>
      <trkpt lat="49.66733" lon="4.95713">
        <ele>159.72</ele>
        <time>2020-06-27T13:36:06Z</time>
      </trkpt>
      <trkpt lat="49.66744" lon="4.95731">
        <ele>159.72</ele>
        <time>2020-06-27T13:36:21Z</time>
      </trkpt>
      <trkpt lat="49.6675" lon="4.95746">
        <ele>159.72</ele>
        <time>2020-06-27T13:36:32Z</time>
      </trkpt>
      <trkpt lat="49.66755" lon="4.95759">
        <ele>160.2</ele>
        <time>2020-06-27T13:36:39Z</time>
      </trkpt>
      <trkpt lat="49.66767" lon="4.95777">
        <ele>159.24</ele>
        <time>2020-06-27T13:36:55Z</time>
      </trkpt>
      <trkpt lat="49.66772" lon="4.95783">
        <ele>159.72</ele>
        <time>2020-06-27T13:37:00Z</time>
      </trkpt>
      <trkpt lat="49.66785" lon="4.95799">
        <ele>157.79</ele>
        <time>2020-06-27T13:37:17Z</time>
      </trkpt>
      <trkpt lat="49.66804" lon="4.95819">
        <ele>157.79</ele>
        <time>2020-06-27T13:37:34Z</time>
      </trkpt>
      <trkpt lat="49.66807" lon="4.95821">
        <ele>157.79</ele>
        <time>2020-06-27T13:37:40Z</time>
      </trkpt>
      <trkpt lat="49.66823" lon="4.95839">
        <ele>156.35</ele>
        <time>2020-06-27T13:37:56Z</time>
      </trkpt>
      <trkpt lat="49.66836" lon="4.95859">
        <ele>156.35</ele>
        <time>2020-06-27T13:38:12Z</time>
      </trkpt>
      <trkpt lat="49.6685" lon="4.95876">
        <ele>157.31</ele>
        <time>2020-06-27T13:38:28Z</time>
      </trkpt>
      <trkpt lat="49.66851" lon="4.9588">
        <ele>157.31</ele>
        <time>2020-06-27T13:38:33Z</time>
      </trkpt>
      <trkpt lat="49.66846" lon="4.959">
        <ele>157.31</ele>
        <time>2020-06-27T13:38:48Z</time>
      </trkpt>
      <trkpt lat="49.66839" lon="4.95919">
        <ele>158.27</ele>
        <time>2020-06-27T13:39:01Z</time>
      </trkpt>
      <trkpt lat="49.66832" lon="4.95943">
        <ele>158.27</ele>
        <time>2020-06-27T13:39:14Z</time>
      </trkpt>
      <trkpt lat="49.66824" lon="4.9597">
        <ele>157.79</ele>
        <time>2020-06-27T13:39:30Z</time>
      </trkpt>
      <trkpt lat="49.66817" lon="4.95985">
        <ele>157.31</ele>
        <time>2020-06-27T13:39:42Z</time>
      </trkpt>
      <trkpt lat="49.66817" lon="4.9599">
        <ele>157.79</ele>
        <time>2020-06-27T13:39:52Z</time>
      </trkpt>
      <trkpt lat="49.66827" lon="4.96008">
        <ele>158.27</ele>
        <time>2020-06-27T13:40:06Z</time>
      </trkpt>
      <trkpt lat="49.66828" lon="4.96011">
        <ele>158.27</ele>
        <time>2020-06-27T13:40:22Z</time>
      </trkpt>
      <trkpt lat="49.66836" lon="4.96018">
        <ele>155.87</ele>
        <time>2020-06-27T13:40:34Z</time>
      </trkpt>
      <trkpt lat="49.66838" lon="4.96018">
        <ele>155.87</ele>
        <time>2020-06-27T13:40:36Z</time>
      </trkpt>
      <trkpt lat="49.6685" lon="4.96006">
        <ele>156.83</ele>
        <time>2020-06-27T13:40:51Z</time>
      </trkpt>
      <trkpt lat="49.66853" lon="4.96">
        <ele>156.83</ele>
        <time>2020-06-27T13:40:56Z</time>
      </trkpt>
      <trkpt lat="49.66861" lon="4.95979">
        <ele>157.79</ele>
        <time>2020-06-27T13:41:10Z</time>
      </trkpt>
      <trkpt lat="49.66862" lon="4.95977">
        <ele>158.27</ele>
        <time>2020-06-27T13:41:12Z</time>
      </trkpt>
      <trkpt lat="49.66872" lon="4.95956">
        <ele>159.72</ele>
        <time>2020-06-27T13:41:27Z</time>
      </trkpt>
      <trkpt lat="49.66873" lon="4.95954">
        <ele>159.72</ele>
        <time>2020-06-27T13:41:30Z</time>
      </trkpt>
      <trkpt lat="49.66877" lon="4.95954">
        <ele>159.24</ele>
        <time>2020-06-27T13:41:39Z</time>
      </trkpt>
      <trkpt lat="49.6687" lon="4.9597">
        <ele>159.24</ele>
        <time>2020-06-27T13:41:54Z</time>
      </trkpt>
      <trkpt lat="49.66864" lon="4.95983">
        <ele>155.39</ele>
        <time>2020-06-27T13:42:01Z</time>
      </trkpt>
      <trkpt lat="49.66858" lon="4.96004">
        <ele>150.58</ele>
        <time>2020-06-27T13:42:17Z</time>
      </trkpt>
      <trkpt lat="49.6685" lon="4.96022">
        <ele>149.62</ele>
        <time>2020-06-27T13:42:30Z</time>
      </trkpt>
      <trkpt lat="49.6685" lon="4.96023">
        <ele>149.62</ele>
        <time>2020-06-27T13:42:31Z</time>
      </trkpt>
      <trkpt lat="49.66842" lon="4.96041">
        <ele>149.62</ele>
        <time>2020-06-27T13:42:45Z</time>
      </trkpt>
      <trkpt lat="49.66833" lon="4.96061">
        <ele>150.58</ele>
        <time>2020-06-27T13:43:01Z</time>
      </trkpt>
      <trkpt lat="49.66823" lon="4.96081">
        <ele>148.18</ele>
        <time>2020-06-27T13:43:16Z</time>
      </trkpt>
      <trkpt lat="49.66815" lon="4.96105">
        <ele>147.22</ele>
        <time>2020-06-27T13:43:31Z</time>
      </trkpt>
      <trkpt lat="49.66807" lon="4.96128">
        <ele>148.66</ele>
        <time>2020-06-27T13:43:46Z</time>
      </trkpt>
      <trkpt lat="49.66798" lon="4.9615">
        <ele>151.54</ele>
        <time>2020-06-27T13:44:01Z</time>
      </trkpt>
      <trkpt lat="49.66793" lon="4.96172">
        <ele>152.99</ele>
        <time>2020-06-27T13:44:16Z</time>
      </trkpt>
      <trkpt lat="49.66787" lon="4.96193">
        <ele>154.91</ele>
        <time>2020-06-27T13:44:31Z</time>
      </trkpt>
      <trkpt lat="49.66778" lon="4.96221">
        <ele>153.47</ele>
        <time>2020-06-27T13:44:47Z</time>
      </trkpt>
      <trkpt lat="49.66773" lon="4.96246">
        <ele>154.91</ele>
        <time>2020-06-27T13:45:03Z</time>
      </trkpt>
      <trkpt lat="49.66771" lon="4.96271">
        <ele>157.79</ele>
        <time>2020-06-27T13:45:18Z</time>
      </trkpt>
      <trkpt lat="49.66765" lon="4.963">
        <ele>158.27</ele>
        <time>2020-06-27T13:45:35Z</time>
      </trkpt>
      <trkpt lat="49.66764" lon="4.96326">
        <ele>157.31</ele>
        <time>2020-06-27T13:45:51Z</time>
      </trkpt>
      <trkpt lat="49.66766" lon="4.96353">
        <ele>160.2</ele>
        <time>2020-06-27T13:46:06Z</time>
      </trkpt>
      <trkpt lat="49.66769" lon="4.96381">
        <ele>161.16</ele>
        <time>2020-06-27T13:46:21Z</time>
      </trkpt>
      <trkpt lat="49.66774" lon="4.96409">
        <ele>159.72</ele>
        <time>2020-06-27T13:46:38Z</time>
      </trkpt>
      <trkpt lat="49.66779" lon="4.96434">
        <ele>158.27</ele>
        <time>2020-06-27T13:46:54Z</time>
      </trkpt>
      <trkpt lat="49.66784" lon="4.96457">
        <ele>157.79</ele>
        <time>2020-06-27T13:47:09Z</time>
      </trkpt>
      <trkpt lat="49.66787" lon="4.96474">
        <ele>157.31</ele>
        <time>2020-06-27T13:47:17Z</time>
      </trkpt>
      <trkpt lat="49.66788" lon="4.96483">
        <ele>158.27</ele>
        <time>2020-06-27T13:47:25Z</time>
      </trkpt>
      <trkpt lat="49.66792" lon="4.965">
        <ele>158.75</ele>
        <time>2020-06-27T13:47:34Z</time>
      </trkpt>
      <trkpt lat="49.66797" lon="4.96526">
        <ele>160.2</ele>
        <time>2020-06-27T13:47:51Z</time>
      </trkpt>
      <trkpt lat="49.668" lon="4.96547">
        <ele>159.24</ele>
        <time>2020-06-27T13:48:04Z</time>
      </trkpt>
      <trkpt lat="49.66802" lon="4.96561">
        <ele>159.24</ele>
        <time>2020-06-27T13:48:11Z</time>
      </trkpt>
      <trkpt lat="49.66807" lon="4.96582">
        <ele>159.72</ele>
        <time>2020-06-27T13:48:25Z</time>
      </trkpt>
      <trkpt lat="49.66812" lon="4.96604">
        <ele>159.72</ele>
        <time>2020-06-27T13:48:39Z</time>
      </trkpt>
      <trkpt lat="49.66814" lon="4.96628">
        <ele>158.75</ele>
        <time>2020-06-27T13:48:53Z</time>
      </trkpt>
      <trkpt lat="49.66817" lon="4.96641">
        <ele>157.79</ele>
        <time>2020-06-27T13:49:02Z</time>
      </trkpt>
      <trkpt lat="49.66822" lon="4.96664">
        <ele>157.79</ele>
        <time>2020-06-27T13:49:18Z</time>
      </trkpt>
      <trkpt lat="49.66826" lon="4.96689">
        <ele>158.27</ele>
        <time>2020-06-27T13:49:32Z</time>
      </trkpt>
      <trkpt lat="49.66828" lon="4.96714">
        <ele>158.27</ele>
        <time>2020-06-27T13:49:46Z</time>
      </trkpt>
      <trkpt lat="49.6683" lon="4.9674">
        <ele>160.68</ele>
        <time>2020-06-27T13:50:02Z</time>
      </trkpt>
      <trkpt lat="49.66825" lon="4.9677">
        <ele>160.2</ele>
        <time>2020-06-27T13:50:20Z</time>
      </trkpt>
      <trkpt lat="49.66821" lon="4.96793">
        <ele>162.12</ele>
        <time>2020-06-27T13:50:34Z</time>
      </trkpt>
      <trkpt lat="49.66815" lon="4.96818">
        <ele>164.52</ele>
        <time>2020-06-27T13:50:49Z</time>
      </trkpt>
      <trkpt lat="49.66807" lon="4.96838">
        <ele>164.52</ele>
        <time>2020-06-27T13:51:04Z</time>
      </trkpt>
      <trkpt lat="49.668" lon="4.96858">
        <ele>160.2</ele>
        <time>2020-06-27T13:51:17Z</time>
      </trkpt>
      <trkpt lat="49.66789" lon="4.96883">
        <ele>155.87</ele>
        <time>2020-06-27T13:51:32Z</time>
      </trkpt>
      <trkpt lat="49.66779" lon="4.96904">
        <ele>155.87</ele>
        <time>2020-06-27T13:51:50Z</time>
      </trkpt>
      <trkpt lat="49.66771" lon="4.96924">
        <ele>151.06</ele>
        <time>2020-06-27T13:52:06Z</time>
      </trkpt>
      <trkpt lat="49.66761" lon="4.96935">
        <ele>149.62</ele>
        <time>2020-06-27T13:52:16Z</time>
      </trkpt>
      <trkpt lat="49.6675" lon="4.96948">
        <ele>155.39</ele>
        <time>2020-06-27T13:52:31Z</time>
      </trkpt>
      <trkpt lat="49.66734" lon="4.96969">
        <ele>155.87</ele>
        <time>2020-06-27T13:52:45Z</time>
      </trkpt>
      <trkpt lat="49.66724" lon="4.96989">
        <ele>153.95</ele>
        <time>2020-06-27T13:53:01Z</time>
      </trkpt>
      <trkpt lat="49.66714" lon="4.97005">
        <ele>152.51</ele>
        <time>2020-06-27T13:53:15Z</time>
      </trkpt>
      <trkpt lat="49.66703" lon="4.97021">
        <ele>152.99</ele>
        <time>2020-06-27T13:53:26Z</time>
      </trkpt>
      <trkpt lat="49.66692" lon="4.97038">
        <ele>152.51</ele>
        <time>2020-06-27T13:53:41Z</time>
      </trkpt>
      <trkpt lat="49.66682" lon="4.97058">
        <ele>151.54</ele>
        <time>2020-06-27T13:53:57Z</time>
      </trkpt>
      <trkpt lat="49.66671" lon="4.97084">
        <ele>151.06</ele>
        <time>2020-06-27T13:54:13Z</time>
      </trkpt>
      <trkpt lat="49.66663" lon="4.97107">
        <ele>150.1</ele>
        <time>2020-06-27T13:54:28Z</time>
      </trkpt>
      <trkpt lat="49.66656" lon="4.97127">
        <ele>149.62</ele>
        <time>2020-06-27T13:54:43Z</time>
      </trkpt>
      <trkpt lat="49.6665" lon="4.97148">
        <ele>151.06</ele>
        <time>2020-06-27T13:54:57Z</time>
      </trkpt>
      <trkpt lat="49.66642" lon="4.97171">
        <ele>151.06</ele>
        <time>2020-06-27T13:55:12Z</time>
      </trkpt>
      <trkpt lat="49.66634" lon="4.97195">
        <ele>151.06</ele>
        <time>2020-06-27T13:55:26Z</time>
      </trkpt>
      <trkpt lat="49.66628" lon="4.97217">
        <ele>151.06</ele>
        <time>2020-06-27T13:55:41Z</time>
      </trkpt>
      <trkpt lat="49.66623" lon="4.97234">
        <ele>151.54</ele>
        <time>2020-06-27T13:55:54Z</time>
      </trkpt>
      <trkpt lat="49.66609" lon="4.97263">
        <ele>151.54</ele>
        <time>2020-06-27T13:56:12Z</time>
      </trkpt>
      <trkpt lat="49.66601" lon="4.97283">
        <ele>152.03</ele>
        <time>2020-06-27T13:56:28Z</time>
      </trkpt>
      <trkpt lat="49.66592" lon="4.97302">
        <ele>151.06</ele>
        <time>2020-06-27T13:56:43Z</time>
      </trkpt>
      <trkpt lat="49.66578" lon="4.97328">
        <ele>152.99</ele>
        <time>2020-06-27T13:57:01Z</time>
      </trkpt>
      <trkpt lat="49.66564" lon="4.97353">
        <ele>152.99</ele>
        <time>2020-06-27T13:57:19Z</time>
      </trkpt>
      <trkpt lat="49.66555" lon="4.97372">
        <ele>152.51</ele>
        <time>2020-06-27T13:57:36Z</time>
      </trkpt>
      <trkpt lat="49.66545" lon="4.97389">
        <ele>152.03</ele>
        <time>2020-06-27T13:57:50Z</time>
      </trkpt>
      <trkpt lat="49.6653" lon="4.97412">
        <ele>150.58</ele>
        <time>2020-06-27T13:58:07Z</time>
      </trkpt>
      <trkpt lat="49.66519" lon="4.97438">
        <ele>150.1</ele>
        <time>2020-06-27T13:58:24Z</time>
      </trkpt>
      <trkpt lat="49.66514" lon="4.97458">
        <ele>152.03</ele>
        <time>2020-06-27T13:58:40Z</time>
      </trkpt>
      <trkpt lat="49.66502" lon="4.97481">
        <ele>151.06</ele>
        <time>2020-06-27T13:58:57Z</time>
      </trkpt>
      <trkpt lat="49.66492" lon="4.97504">
        <ele>151.54</ele>
        <time>2020-06-27T13:59:13Z</time>
      </trkpt>
      <trkpt lat="49.66482" lon="4.97521">
        <ele>150.1</ele>
        <time>2020-06-27T13:59:29Z</time>
      </trkpt>
      <trkpt lat="49.66479" lon="4.97525">
        <ele>149.62</ele>
        <time>2020-06-27T13:59:33Z</time>
      </trkpt>
      <trkpt lat="49.66474" lon="4.97529">
        <ele>150.58</ele>
        <time>2020-06-27T13:59:45Z</time>
      </trkpt>
      <trkpt lat="49.66474" lon="4.97529">
        <ele>151.54</ele>
        <time>2020-06-27T14:00:04Z</time>
      </trkpt>
      <trkpt lat="49.66473" lon="4.97529">
        <ele>152.03</ele>
        <time>2020-06-27T14:00:22Z</time>
      </trkpt>
      <trkpt lat="49.66473" lon="4.97529">
        <ele>152.51</ele>
        <time>2020-06-27T14:00:57Z</time>
      </trkpt>
      <trkpt lat="49.66473" lon="4.97529">
        <ele>152.99</ele>
        <time>2020-06-27T14:01:33Z</time>
      </trkpt>
      <trkpt lat="49.66473" lon="4.97529">
        <ele>153.47</ele>
        <time>2020-06-27T14:02:07Z</time>
      </trkpt>
      <trkpt lat="49.66473" lon="4.97528">
        <ele>152.99</ele>
        <time>2020-06-27T14:02:40Z</time>
      </trkpt>
      <trkpt lat="49.66473" lon="4.97528">
        <ele>152.99</ele>
        <time>2020-06-27T14:03:11Z</time>
      </trkpt>
      <trkpt lat="49.66473" lon="4.97528">
        <ele>152.99</ele>
        <time>2020-06-27T14:03:39Z</time>
      </trkpt>
      <trkpt lat="49.66473" lon="4.97527">
        <ele>152.51</ele>
        <time>2020-06-27T14:03:54Z</time>
      </trkpt>
      <trkpt lat="49.66471" lon="4.97524">
        <ele>152.51</ele>
        <time>2020-06-27T14:04:09Z</time>
      </trkpt>
      <trkpt lat="49.6647" lon="4.97523">
        <ele>152.51</ele>
        <time>2020-06-27T14:04:52Z</time>
      </trkpt>
      <trkpt lat="49.6647" lon="4.97524">
        <ele>153.47</ele>
        <time>2020-06-27T14:05:09Z</time>
      </trkpt>
      <trkpt lat="49.66475" lon="4.97528">
        <ele>153.95</ele>
        <time>2020-06-27T14:05:19Z</time>
      </trkpt>
      <trkpt lat="49.66477" lon="4.97529">
        <ele>154.91</ele>
        <time>2020-06-27T14:05:39Z</time>
      </trkpt>
      <trkpt lat="49.66476" lon="4.9753">
        <ele>155.39</ele>
        <time>2020-06-27T14:06:11Z</time>
      </trkpt>
      <trkpt lat="49.66477" lon="4.97532">
        <ele>155.39</ele>
        <time>2020-06-27T14:06:29Z</time>
      </trkpt>
      <trkpt lat="49.66476" lon="4.97537">
        <ele>155.87</ele>
        <time>2020-06-27T14:06:40Z</time>
      </trkpt>
      <trkpt lat="49.66475" lon="4.97539">
        <ele>155.87</ele>
        <time>2020-06-27T14:06:43Z</time>
      </trkpt>
      <trkpt lat="49.66463" lon="4.9756">
        <ele>156.83</ele>
        <time>2020-06-27T14:06:59Z</time>
      </trkpt>
      <trkpt lat="49.6646" lon="4.97563">
        <ele>156.35</ele>
        <time>2020-06-27T14:07:06Z</time>
      </trkpt>
      <trkpt lat="49.66448" lon="4.97587">
        <ele>155.39</ele>
        <time>2020-06-27T14:07:22Z</time>
      </trkpt>
      <trkpt lat="49.66436" lon="4.97612">
        <ele>154.43</ele>
        <time>2020-06-27T14:07:40Z</time>
      </trkpt>
      <trkpt lat="49.6643" lon="4.97625">
        <ele>155.39</ele>
        <time>2020-06-27T14:07:48Z</time>
      </trkpt>
      <trkpt lat="49.66418" lon="4.97646">
        <ele>154.91</ele>
        <time>2020-06-27T14:08:05Z</time>
      </trkpt>
      <trkpt lat="49.66408" lon="4.97664">
        <ele>155.87</ele>
        <time>2020-06-27T14:08:19Z</time>
      </trkpt>
      <trkpt lat="49.66399" lon="4.97683">
        <ele>154.91</ele>
        <time>2020-06-27T14:08:34Z</time>
      </trkpt>
      <trkpt lat="49.66389" lon="4.97704">
        <ele>155.39</ele>
        <time>2020-06-27T14:08:49Z</time>
      </trkpt>
      <trkpt lat="49.66378" lon="4.97725">
        <ele>155.87</ele>
        <time>2020-06-27T14:09:05Z</time>
      </trkpt>
      <trkpt lat="49.66368" lon="4.97745">
        <ele>155.87</ele>
        <time>2020-06-27T14:09:21Z</time>
      </trkpt>
      <trkpt lat="49.66358" lon="4.97765">
        <ele>156.35</ele>
        <time>2020-06-27T14:09:36Z</time>
      </trkpt>
      <trkpt lat="49.66348" lon="4.97783">
        <ele>155.87</ele>
        <time>2020-06-27T14:09:50Z</time>
      </trkpt>
      <trkpt lat="49.66341" lon="4.97798">
        <ele>155.87</ele>
        <time>2020-06-27T14:10:02Z</time>
      </trkpt>
      <trkpt lat="49.66337" lon="4.97805">
        <ele>155.87</ele>
        <time>2020-06-27T14:10:07Z</time>
      </trkpt>
      <trkpt lat="49.66322" lon="4.97831">
        <ele>155.87</ele>
        <time>2020-06-27T14:10:26Z</time>
      </trkpt>
      <trkpt lat="49.66311" lon="4.97851">
        <ele>156.35</ele>
        <time>2020-06-27T14:10:42Z</time>
      </trkpt>
      <trkpt lat="49.66299" lon="4.97874">
        <ele>156.83</ele>
        <time>2020-06-27T14:10:59Z</time>
      </trkpt>
      <trkpt lat="49.66289" lon="4.97895">
        <ele>156.35</ele>
        <time>2020-06-27T14:11:16Z</time>
      </trkpt>
      <trkpt lat="49.66278" lon="4.97914">
        <ele>155.87</ele>
        <time>2020-06-27T14:11:31Z</time>
      </trkpt>
      <trkpt lat="49.66269" lon="4.97933">
        <ele>155.87</ele>
        <time>2020-06-27T14:11:44Z</time>
      </trkpt>
      <trkpt lat="49.6626" lon="4.9795">
        <ele>155.87</ele>
        <time>2020-06-27T14:11:57Z</time>
      </trkpt>
      <trkpt lat="49.66249" lon="4.9797">
        <ele>155.87</ele>
        <time>2020-06-27T14:12:13Z</time>
      </trkpt>
      <trkpt lat="49.66239" lon="4.97991">
        <ele>154.91</ele>
        <time>2020-06-27T14:12:29Z</time>
      </trkpt>
      <trkpt lat="49.66229" lon="4.98012">
        <ele>154.91</ele>
        <time>2020-06-27T14:12:45Z</time>
      </trkpt>
      <trkpt lat="49.66218" lon="4.98033">
        <ele>154.91</ele>
        <time>2020-06-27T14:13:01Z</time>
      </trkpt>
      <trkpt lat="49.66205" lon="4.98055">
        <ele>154.91</ele>
        <time>2020-06-27T14:13:18Z</time>
      </trkpt>
      <trkpt lat="49.66198" lon="4.98068">
        <ele>155.39</ele>
        <time>2020-06-27T14:13:31Z</time>
      </trkpt>
      <trkpt lat="49.66187" lon="4.98088">
        <ele>155.87</ele>
        <time>2020-06-27T14:13:46Z</time>
      </trkpt>
      <trkpt lat="49.66177" lon="4.98106">
        <ele>155.87</ele>
        <time>2020-06-27T14:14:01Z</time>
      </trkpt>
      <trkpt lat="49.66169" lon="4.98126">
        <ele>156.35</ele>
        <time>2020-06-27T14:14:16Z</time>
      </trkpt>
      <trkpt lat="49.6616" lon="4.98145">
        <ele>154.91</ele>
        <time>2020-06-27T14:14:30Z</time>
      </trkpt>
      <trkpt lat="49.66152" lon="4.98165">
        <ele>153.95</ele>
        <time>2020-06-27T14:14:44Z</time>
      </trkpt>
      <trkpt lat="49.66141" lon="4.98183">
        <ele>153.95</ele>
        <time>2020-06-27T14:15:00Z</time>
      </trkpt>
      <trkpt lat="49.66129" lon="4.98204">
        <ele>153.95</ele>
        <time>2020-06-27T14:15:17Z</time>
      </trkpt>
      <trkpt lat="49.66117" lon="4.98225">
        <ele>154.91</ele>
        <time>2020-06-27T14:15:33Z</time>
      </trkpt>
      <trkpt lat="49.66107" lon="4.98248">
        <ele>154.91</ele>
        <time>2020-06-27T14:15:51Z</time>
      </trkpt>
      <trkpt lat="49.66096" lon="4.98269">
        <ele>154.43</ele>
        <time>2020-06-27T14:16:08Z</time>
      </trkpt>
      <trkpt lat="49.66085" lon="4.9829">
        <ele>154.91</ele>
        <time>2020-06-27T14:16:25Z</time>
      </trkpt>
      <trkpt lat="49.66079" lon="4.98302">
        <ele>154.43</ele>
        <time>2020-06-27T14:16:36Z</time>
      </trkpt>
      <trkpt lat="49.66069" lon="4.98323">
        <ele>155.39</ele>
        <time>2020-06-27T14:16:52Z</time>
      </trkpt>
      <trkpt lat="49.66057" lon="4.98346">
        <ele>155.39</ele>
        <time>2020-06-27T14:17:10Z</time>
      </trkpt>
      <trkpt lat="49.66046" lon="4.98366">
        <ele>155.39</ele>
        <time>2020-06-27T14:17:26Z</time>
      </trkpt>
      <trkpt lat="49.66035" lon="4.98386">
        <ele>153.95</ele>
        <time>2020-06-27T14:17:41Z</time>
      </trkpt>
      <trkpt lat="49.66031" lon="4.98394">
        <ele>152.99</ele>
        <time>2020-06-27T14:17:55Z</time>
      </trkpt>
      <trkpt lat="49.66019" lon="4.98415">
        <ele>152.99</ele>
        <time>2020-06-27T14:18:12Z</time>
      </trkpt>
      <trkpt lat="49.66007" lon="4.98436">
        <ele>152.03</ele>
        <time>2020-06-27T14:18:29Z</time>
      </trkpt>
      <trkpt lat="49.65997" lon="4.98453">
        <ele>153.95</ele>
        <time>2020-06-27T14:18:44Z</time>
      </trkpt>
      <trkpt lat="49.65984" lon="4.98473">
        <ele>155.87</ele>
        <time>2020-06-27T14:19:00Z</time>
      </trkpt>
      <trkpt lat="49.65975" lon="4.9849">
        <ele>157.31</ele>
        <time>2020-06-27T14:19:14Z</time>
      </trkpt>
      <trkpt lat="49.6597" lon="4.985">
        <ele>157.79</ele>
        <time>2020-06-27T14:19:28Z</time>
      </trkpt>
      <trkpt lat="49.65965" lon="4.9851">
        <ele>156.83</ele>
        <time>2020-06-27T14:19:43Z</time>
      </trkpt>
      <trkpt lat="49.65956" lon="4.98526">
        <ele>154.91</ele>
        <time>2020-06-27T14:19:59Z</time>
      </trkpt>
      <trkpt lat="49.65947" lon="4.98546">
        <ele>154.91</ele>
        <time>2020-06-27T14:20:13Z</time>
      </trkpt>
      <trkpt lat="49.65937" lon="4.98569">
        <ele>154.91</ele>
        <time>2020-06-27T14:20:32Z</time>
      </trkpt>
      <trkpt lat="49.65927" lon="4.98588">
        <ele>154.43</ele>
        <time>2020-06-27T14:20:47Z</time>
      </trkpt>
      <trkpt lat="49.65915" lon="4.98611">
        <ele>153.95</ele>
        <time>2020-06-27T14:21:03Z</time>
      </trkpt>
      <trkpt lat="49.65904" lon="4.98631">
        <ele>154.43</ele>
        <time>2020-06-27T14:21:18Z</time>
      </trkpt>
      <trkpt lat="49.65894" lon="4.9865">
        <ele>155.87</ele>
        <time>2020-06-27T14:21:32Z</time>
      </trkpt>
      <trkpt lat="49.65883" lon="4.98668">
        <ele>156.35</ele>
        <time>2020-06-27T14:21:48Z</time>
      </trkpt>
      <trkpt lat="49.65874" lon="4.98687">
        <ele>155.87</ele>
        <time>2020-06-27T14:22:03Z</time>
      </trkpt>
      <trkpt lat="49.65863" lon="4.98706">
        <ele>156.83</ele>
        <time>2020-06-27T14:22:19Z</time>
      </trkpt>
      <trkpt lat="49.65855" lon="4.98722">
        <ele>155.39</ele>
        <time>2020-06-27T14:22:32Z</time>
      </trkpt>
      <trkpt lat="49.65846" lon="4.98741">
        <ele>155.39</ele>
        <time>2020-06-27T14:22:47Z</time>
      </trkpt>
      <trkpt lat="49.65835" lon="4.98765">
        <ele>154.91</ele>
        <time>2020-06-27T14:23:03Z</time>
      </trkpt>
      <trkpt lat="49.65825" lon="4.98784">
        <ele>155.39</ele>
        <time>2020-06-27T14:23:19Z</time>
      </trkpt>
      <trkpt lat="49.65813" lon="4.98804">
        <ele>155.39</ele>
        <time>2020-06-27T14:23:36Z</time>
      </trkpt>
      <trkpt lat="49.65803" lon="4.98825">
        <ele>156.83</ele>
        <time>2020-06-27T14:23:51Z</time>
      </trkpt>
      <trkpt lat="49.65791" lon="4.98847">
        <ele>157.31</ele>
        <time>2020-06-27T14:24:08Z</time>
      </trkpt>
      <trkpt lat="49.65781" lon="4.98868">
        <ele>158.27</ele>
        <time>2020-06-27T14:24:24Z</time>
      </trkpt>
      <trkpt lat="49.6577" lon="4.9889">
        <ele>158.75</ele>
        <time>2020-06-27T14:24:41Z</time>
      </trkpt>
      <trkpt lat="49.65759" lon="4.98912">
        <ele>159.72</ele>
        <time>2020-06-27T14:24:58Z</time>
      </trkpt>
      <trkpt lat="49.6575" lon="4.98929">
        <ele>159.24</ele>
        <time>2020-06-27T14:25:13Z</time>
      </trkpt>
      <trkpt lat="49.65738" lon="4.98948">
        <ele>157.79</ele>
        <time>2020-06-27T14:25:29Z</time>
      </trkpt>
      <trkpt lat="49.65728" lon="4.98967">
        <ele>157.79</ele>
        <time>2020-06-27T14:25:45Z</time>
      </trkpt>
      <trkpt lat="49.65719" lon="4.98985">
        <ele>155.87</ele>
        <time>2020-06-27T14:25:59Z</time>
      </trkpt>
      <trkpt lat="49.65707" lon="4.99003">
        <ele>155.87</ele>
        <time>2020-06-27T14:26:14Z</time>
      </trkpt>
      <trkpt lat="49.65696" lon="4.99023">
        <ele>156.35</ele>
        <time>2020-06-27T14:26:30Z</time>
      </trkpt>
      <trkpt lat="49.65683" lon="4.99046">
        <ele>155.39</ele>
        <time>2020-06-27T14:26:47Z</time>
      </trkpt>
      <trkpt lat="49.65672" lon="4.99063">
        <ele>153.95</ele>
        <time>2020-06-27T14:27:03Z</time>
      </trkpt>
      <trkpt lat="49.65662" lon="4.99079">
        <ele>153.95</ele>
        <time>2020-06-27T14:27:18Z</time>
      </trkpt>
      <trkpt lat="49.65657" lon="4.9909">
        <ele>153.95</ele>
        <time>2020-06-27T14:27:28Z</time>
      </trkpt>
      <trkpt lat="49.65644" lon="4.99111">
        <ele>155.39</ele>
        <time>2020-06-27T14:27:46Z</time>
      </trkpt>
      <trkpt lat="49.6564" lon="4.99118">
        <ele>155.87</ele>
        <time>2020-06-27T14:27:52Z</time>
      </trkpt>
      <trkpt lat="49.65629" lon="4.99136">
        <ele>155.39</ele>
        <time>2020-06-27T14:28:08Z</time>
      </trkpt>
      <trkpt lat="49.65618" lon="4.99154">
        <ele>155.39</ele>
        <time>2020-06-27T14:28:23Z</time>
      </trkpt>
      <trkpt lat="49.65608" lon="4.99173">
        <ele>155.87</ele>
        <time>2020-06-27T14:28:38Z</time>
      </trkpt>
      <trkpt lat="49.65597" lon="4.99191">
        <ele>154.91</ele>
        <time>2020-06-27T14:28:52Z</time>
      </trkpt>
      <trkpt lat="49.65586" lon="4.99209">
        <ele>155.39</ele>
        <time>2020-06-27T14:29:07Z</time>
      </trkpt>
      <trkpt lat="49.65574" lon="4.9923">
        <ele>155.39</ele>
        <time>2020-06-27T14:29:24Z</time>
      </trkpt>
      <trkpt lat="49.65567" lon="4.99245">
        <ele>154.43</ele>
        <time>2020-06-27T14:29:40Z</time>
      </trkpt>
      <trkpt lat="49.65567" lon="4.99245">
        <ele>154.91</ele>
        <time>2020-06-27T14:29:56Z</time>
      </trkpt>
      <trkpt lat="49.65567" lon="4.99243">
        <ele>157.79</ele>
        <time>2020-06-27T14:30:20Z</time>
      </trkpt>
      <trkpt lat="49.65565" lon="4.99242">
        <ele>157.79</ele>
        <time>2020-06-27T14:30:37Z</time>
      </trkpt>
      <trkpt lat="49.65553" lon="4.99228">
        <ele>155.87</ele>
        <time>2020-06-27T14:30:50Z</time>
      </trkpt>
      <trkpt lat="49.6554" lon="4.99217">
        <ele>152.99</ele>
        <time>2020-06-27T14:31:09Z</time>
      </trkpt>
      <trkpt lat="49.65523" lon="4.99206">
        <ele>153.95</ele>
        <time>2020-06-27T14:31:23Z</time>
      </trkpt>
      <trkpt lat="49.65514" lon="4.99201">
        <ele>154.91</ele>
        <time>2020-06-27T14:31:34Z</time>
      </trkpt>
      <trkpt lat="49.65506" lon="4.99197">
        <ele>156.35</ele>
        <time>2020-06-27T14:31:47Z</time>
      </trkpt>
      <trkpt lat="49.65502" lon="4.99197">
        <ele>157.79</ele>
        <time>2020-06-27T14:31:59Z</time>
      </trkpt>
      <trkpt lat="49.65501" lon="4.99198">
        <ele>157.79</ele>
        <time>2020-06-27T14:32:00Z</time>
      </trkpt>
      <trkpt lat="49.65486" lon="4.99226">
        <ele>161.64</ele>
        <time>2020-06-27T14:32:16Z</time>
      </trkpt>
      <trkpt lat="49.65478" lon="4.99248">
        <ele>161.64</ele>
        <time>2020-06-27T14:32:31Z</time>
      </trkpt>
      <trkpt lat="49.65473" lon="4.99261">
        <ele>163.56</ele>
        <time>2020-06-27T14:32:42Z</time>
      </trkpt>
      <trkpt lat="49.65469" lon="4.99273">
        <ele>162.6</ele>
        <time>2020-06-27T14:32:56Z</time>
      </trkpt>
      <trkpt lat="49.65468" lon="4.99276">
        <ele>162.12</ele>
        <time>2020-06-27T14:33:14Z</time>
      </trkpt>
      <trkpt lat="49.65467" lon="4.99277">
        <ele>162.12</ele>
        <time>2020-06-27T14:33:15Z</time>
      </trkpt>
      <trkpt lat="49.65454" lon="4.99279">
        <ele>160.2</ele>
        <time>2020-06-27T14:33:28Z</time>
      </trkpt>
      <trkpt lat="49.65454" lon="4.99279">
        <ele>160.2</ele>
        <time>2020-06-27T14:33:29Z</time>
      </trkpt>
      <trkpt lat="49.65442" lon="4.99264">
        <ele>160.2</ele>
        <time>2020-06-27T14:33:45Z</time>
      </trkpt>
      <trkpt lat="49.65427" lon="4.9925">
        <ele>158.75</ele>
        <time>2020-06-27T14:33:58Z</time>
      </trkpt>
      <trkpt lat="49.65422" lon="4.99232">
        <ele>151.54</ele>
        <time>2020-06-27T14:34:11Z</time>
      </trkpt>
      <trkpt lat="49.6541" lon="4.99214">
        <ele>148.66</ele>
        <time>2020-06-27T14:34:26Z</time>
      </trkpt>
      <trkpt lat="49.65398" lon="4.99199">
        <ele>150.1</ele>
        <time>2020-06-27T14:34:40Z</time>
      </trkpt>
      <trkpt lat="49.6539" lon="4.99185">
        <ele>152.03</ele>
        <time>2020-06-27T14:34:53Z</time>
      </trkpt>
      <trkpt lat="49.65381" lon="4.99188">
        <ele>155.87</ele>
        <time>2020-06-27T14:34:59Z</time>
      </trkpt>
      <trkpt lat="49.65373" lon="4.9919">
        <ele>160.68</ele>
        <time>2020-06-27T14:35:11Z</time>
      </trkpt>
      <trkpt lat="49.65373" lon="4.99189">
        <ele>160.68</ele>
        <time>2020-06-27T14:35:12Z</time>
      </trkpt>
      <trkpt lat="49.65375" lon="4.99186">
        <ele>160.2</ele>
        <time>2020-06-27T14:35:15Z</time>
      </trkpt>
      <trkpt lat="49.6537" lon="4.99167">
        <ele>155.39</ele>
        <time>2020-06-27T14:35:29Z</time>
      </trkpt>
      <trkpt lat="49.65362" lon="4.99146">
        <ele>154.43</ele>
        <time>2020-06-27T14:35:42Z</time>
      </trkpt>
      <trkpt lat="49.6535" lon="4.99127">
        <ele>153.95</ele>
        <time>2020-06-27T14:35:58Z</time>
      </trkpt>
      <trkpt lat="49.65341" lon="4.99108">
        <ele>153.47</ele>
        <time>2020-06-27T14:36:12Z</time>
      </trkpt>
      <trkpt lat="49.65334" lon="4.99089">
        <ele>154.91</ele>
        <time>2020-06-27T14:36:26Z</time>
      </trkpt>
      <trkpt lat="49.65326" lon="4.99066">
        <ele>156.35</ele>
        <time>2020-06-27T14:36:41Z</time>
      </trkpt>
      <trkpt lat="49.65318" lon="4.99043">
        <ele>156.83</ele>
        <time>2020-06-27T14:36:57Z</time>
      </trkpt>
      <trkpt lat="49.65314" lon="4.99038">
        <ele>157.31</ele>
        <time>2020-06-27T14:37:04Z</time>
      </trkpt>
      <trkpt lat="49.65299" lon="4.99023">
        <ele>159.72</ele>
        <time>2020-06-27T14:37:20Z</time>
      </trkpt>
      <trkpt lat="49.65285" lon="4.99002">
        <ele>158.27</ele>
        <time>2020-06-27T14:37:35Z</time>
      </trkpt>
      <trkpt lat="49.65268" lon="4.98988">
        <ele>157.79</ele>
        <time>2020-06-27T14:37:51Z</time>
      </trkpt>
      <trkpt lat="49.65258" lon="4.98983">
        <ele>158.75</ele>
        <time>2020-06-27T14:38:03Z</time>
      </trkpt>
      <trkpt lat="49.6524" lon="4.9897">
        <ele>158.27</ele>
        <time>2020-06-27T14:38:20Z</time>
      </trkpt>
      <trkpt lat="49.65223" lon="4.98954">
        <ele>159.24</ele>
        <time>2020-06-27T14:38:36Z</time>
      </trkpt>
      <trkpt lat="49.65207" lon="4.98938">
        <ele>159.24</ele>
        <time>2020-06-27T14:38:53Z</time>
      </trkpt>
      <trkpt lat="49.65195" lon="4.98928">
        <ele>159.24</ele>
        <time>2020-06-27T14:39:07Z</time>
      </trkpt>
      <trkpt lat="49.65181" lon="4.98913">
        <ele>160.68</ele>
        <time>2020-06-27T14:39:22Z</time>
      </trkpt>
      <trkpt lat="49.65168" lon="4.989">
        <ele>160.2</ele>
        <time>2020-06-27T14:39:36Z</time>
      </trkpt>
      <trkpt lat="49.65156" lon="4.9889">
        <ele>161.64</ele>
        <time>2020-06-27T14:39:50Z</time>
      </trkpt>
      <trkpt lat="49.65143" lon="4.98879">
        <ele>163.56</ele>
        <time>2020-06-27T14:40:04Z</time>
      </trkpt>
      <trkpt lat="49.65132" lon="4.98867">
        <ele>165</ele>
        <time>2020-06-27T14:40:17Z</time>
      </trkpt>
      <trkpt lat="49.65118" lon="4.98852">
        <ele>165.96</ele>
        <time>2020-06-27T14:40:32Z</time>
      </trkpt>
      <trkpt lat="49.65103" lon="4.98838">
        <ele>166.93</ele>
        <time>2020-06-27T14:40:48Z</time>
      </trkpt>
      <trkpt lat="49.65089" lon="4.98826">
        <ele>167.41</ele>
        <time>2020-06-27T14:41:04Z</time>
      </trkpt>
      <trkpt lat="49.65078" lon="4.98816">
        <ele>167.89</ele>
        <time>2020-06-27T14:41:18Z</time>
      </trkpt>
      <trkpt lat="49.65064" lon="4.98804">
        <ele>166.93</ele>
        <time>2020-06-27T14:41:33Z</time>
      </trkpt>
      <trkpt lat="49.65048" lon="4.98788">
        <ele>165.96</ele>
        <time>2020-06-27T14:41:49Z</time>
      </trkpt>
      <trkpt lat="49.65033" lon="4.98774">
        <ele>165.48</ele>
        <time>2020-06-27T14:42:07Z</time>
      </trkpt>
      <trkpt lat="49.65031" lon="4.98772">
        <ele>164.04</ele>
        <time>2020-06-27T14:42:15Z</time>
      </trkpt>
      <trkpt lat="49.65026" lon="4.98767">
        <ele>163.56</ele>
        <time>2020-06-27T14:42:20Z</time>
      </trkpt>
      <trkpt lat="49.65021" lon="4.98762">
        <ele>163.08</ele>
        <time>2020-06-27T14:42:24Z</time>
      </trkpt>
      <trkpt lat="49.65005" lon="4.98748">
        <ele>163.56</ele>
        <time>2020-06-27T14:42:44Z</time>
      </trkpt>
      <trkpt lat="49.64992" lon="4.98737">
        <ele>160.68</ele>
        <time>2020-06-27T14:42:58Z</time>
      </trkpt>
      <trkpt lat="49.6498" lon="4.98726">
        <ele>160.2</ele>
        <time>2020-06-27T14:43:12Z</time>
      </trkpt>
      <trkpt lat="49.64968" lon="4.98716">
        <ele>160.2</ele>
        <time>2020-06-27T14:43:25Z</time>
      </trkpt>
      <trkpt lat="49.64956" lon="4.98703">
        <ele>160.2</ele>
        <time>2020-06-27T14:43:39Z</time>
      </trkpt>
      <trkpt lat="49.64944" lon="4.98692">
        <ele>159.72</ele>
        <time>2020-06-27T14:43:52Z</time>
      </trkpt>
      <trkpt lat="49.64933" lon="4.98683">
        <ele>159.72</ele>
        <time>2020-06-27T14:44:05Z</time>
      </trkpt>
      <trkpt lat="49.64926" lon="4.98679">
        <ele>160.2</ele>
        <time>2020-06-27T14:44:12Z</time>
      </trkpt>
      <trkpt lat="49.64913" lon="4.98676">
        <ele>160.68</ele>
        <time>2020-06-27T14:44:26Z</time>
      </trkpt>
      <trkpt lat="49.649" lon="4.98668">
        <ele>162.12</ele>
        <time>2020-06-27T14:44:41Z</time>
      </trkpt>
      <trkpt lat="49.64889" lon="4.98658">
        <ele>162.12</ele>
        <time>2020-06-27T14:44:53Z</time>
      </trkpt>
      <trkpt lat="49.64876" lon="4.98649">
        <ele>161.16</ele>
        <time>2020-06-27T14:45:07Z</time>
      </trkpt>
      <trkpt lat="49.64863" lon="4.9864">
        <ele>160.68</ele>
        <time>2020-06-27T14:45:22Z</time>
      </trkpt>
      <trkpt lat="49.6485" lon="4.98632">
        <ele>159.72</ele>
        <time>2020-06-27T14:45:36Z</time>
      </trkpt>
      <trkpt lat="49.64836" lon="4.98624">
        <ele>160.2</ele>
        <time>2020-06-27T14:45:50Z</time>
      </trkpt>
      <trkpt lat="49.64824" lon="4.98617">
        <ele>160.68</ele>
        <time>2020-06-27T14:46:05Z</time>
      </trkpt>
      <trkpt lat="49.64812" lon="4.98609">
        <ele>162.6</ele>
        <time>2020-06-27T14:46:19Z</time>
      </trkpt>
      <trkpt lat="49.64799" lon="4.98601">
        <ele>162.12</ele>
        <time>2020-06-27T14:46:32Z</time>
      </trkpt>
      <trkpt lat="49.64787" lon="4.98595">
        <ele>161.64</ele>
        <time>2020-06-27T14:46:46Z</time>
      </trkpt>
      <trkpt lat="49.64772" lon="4.98586">
        <ele>160.68</ele>
        <time>2020-06-27T14:47:01Z</time>
      </trkpt>
      <trkpt lat="49.64767" lon="4.98584">
        <ele>160.68</ele>
        <time>2020-06-27T14:47:14Z</time>
      </trkpt>
      <trkpt lat="49.64762" lon="4.98582">
        <ele>161.16</ele>
        <time>2020-06-27T14:47:21Z</time>
      </trkpt>
      <trkpt lat="49.64748" lon="4.98575">
        <ele>161.64</ele>
        <time>2020-06-27T14:47:35Z</time>
      </trkpt>
      <trkpt lat="49.64735" lon="4.98565">
        <ele>161.16</ele>
        <time>2020-06-27T14:47:48Z</time>
      </trkpt>
      <trkpt lat="49.64723" lon="4.98559">
        <ele>158.75</ele>
        <time>2020-06-27T14:48:02Z</time>
      </trkpt>
      <trkpt lat="49.64709" lon="4.98549">
        <ele>157.31</ele>
        <time>2020-06-27T14:48:15Z</time>
      </trkpt>
      <trkpt lat="49.64707" lon="4.98547">
        <ele>157.31</ele>
        <time>2020-06-27T14:48:19Z</time>
      </trkpt>
      <trkpt lat="49.64693" lon="4.9854">
        <ele>157.31</ele>
        <time>2020-06-27T14:48:33Z</time>
      </trkpt>
      <trkpt lat="49.6468" lon="4.98533">
        <ele>158.75</ele>
        <time>2020-06-27T14:48:46Z</time>
      </trkpt>
      <trkpt lat="49.64667" lon="4.98526">
        <ele>159.24</ele>
        <time>2020-06-27T14:48:59Z</time>
      </trkpt>
      <trkpt lat="49.64654" lon="4.98518">
        <ele>160.2</ele>
        <time>2020-06-27T14:49:11Z</time>
      </trkpt>
      <trkpt lat="49.64645" lon="4.98514">
        <ele>161.64</ele>
        <time>2020-06-27T14:49:23Z</time>
      </trkpt>
      <trkpt lat="49.64631" lon="4.98507">
        <ele>163.08</ele>
        <time>2020-06-27T14:49:35Z</time>
      </trkpt>
      <trkpt lat="49.64619" lon="4.985">
        <ele>162.6</ele>
        <time>2020-06-27T14:49:48Z</time>
      </trkpt>
      <trkpt lat="49.64607" lon="4.98492">
        <ele>163.08</ele>
        <time>2020-06-27T14:50:00Z</time>
      </trkpt>
      <trkpt lat="49.64595" lon="4.98487">
        <ele>163.56</ele>
        <time>2020-06-27T14:50:12Z</time>
      </trkpt>
      <trkpt lat="49.64591" lon="4.98484">
        <ele>162.6</ele>
        <time>2020-06-27T14:50:18Z</time>
      </trkpt>
      <trkpt lat="49.64579" lon="4.98477">
        <ele>160.68</ele>
        <time>2020-06-27T14:50:31Z</time>
      </trkpt>
      <trkpt lat="49.64569" lon="4.9847">
        <ele>158.75</ele>
        <time>2020-06-27T14:50:42Z</time>
      </trkpt>
      <trkpt lat="49.64557" lon="4.98462">
        <ele>156.35</ele>
        <time>2020-06-27T14:50:56Z</time>
      </trkpt>
      <trkpt lat="49.64545" lon="4.98456">
        <ele>154.91</ele>
        <time>2020-06-27T14:51:10Z</time>
      </trkpt>
      <trkpt lat="49.64532" lon="4.9845">
        <ele>155.87</ele>
        <time>2020-06-27T14:51:23Z</time>
      </trkpt>
      <trkpt lat="49.64519" lon="4.98442">
        <ele>156.35</ele>
        <time>2020-06-27T14:51:35Z</time>
      </trkpt>
      <trkpt lat="49.64512" lon="4.98438">
        <ele>156.35</ele>
        <time>2020-06-27T14:51:43Z</time>
      </trkpt>
      <trkpt lat="49.645" lon="4.98431">
        <ele>155.87</ele>
        <time>2020-06-27T14:51:56Z</time>
      </trkpt>
      <trkpt lat="49.64488" lon="4.98423">
        <ele>154.91</ele>
        <time>2020-06-27T14:52:09Z</time>
      </trkpt>
      <trkpt lat="49.64477" lon="4.98416">
        <ele>156.35</ele>
        <time>2020-06-27T14:52:25Z</time>
      </trkpt>
      <trkpt lat="49.64471" lon="4.98413">
        <ele>156.35</ele>
        <time>2020-06-27T14:52:29Z</time>
      </trkpt>
      <trkpt lat="49.6446" lon="4.98406">
        <ele>157.31</ele>
        <time>2020-06-27T14:52:42Z</time>
      </trkpt>
      <trkpt lat="49.64451" lon="4.984">
        <ele>157.31</ele>
        <time>2020-06-27T14:52:54Z</time>
      </trkpt>
      <trkpt lat="49.64439" lon="4.98391">
        <ele>155.87</ele>
        <time>2020-06-27T14:53:07Z</time>
      </trkpt>
      <trkpt lat="49.64424" lon="4.98383">
        <ele>155.87</ele>
        <time>2020-06-27T14:53:21Z</time>
      </trkpt>
      <trkpt lat="49.64412" lon="4.98375">
        <ele>156.83</ele>
        <time>2020-06-27T14:53:34Z</time>
      </trkpt>
      <trkpt lat="49.64402" lon="4.98368">
        <ele>158.75</ele>
        <time>2020-06-27T14:53:46Z</time>
      </trkpt>
      <trkpt lat="49.64389" lon="4.98361">
        <ele>160.2</ele>
        <time>2020-06-27T14:54:01Z</time>
      </trkpt>
      <trkpt lat="49.64388" lon="4.9836">
        <ele>160.2</ele>
        <time>2020-06-27T14:54:02Z</time>
      </trkpt>
      <trkpt lat="49.64375" lon="4.9835">
        <ele>160.68</ele>
        <time>2020-06-27T14:54:15Z</time>
      </trkpt>
      <trkpt lat="49.64364" lon="4.98341">
        <ele>160.68</ele>
        <time>2020-06-27T14:54:27Z</time>
      </trkpt>
      <trkpt lat="49.64351" lon="4.98329">
        <ele>161.16</ele>
        <time>2020-06-27T14:54:41Z</time>
      </trkpt>
      <trkpt lat="49.64343" lon="4.98323">
        <ele>163.08</ele>
        <time>2020-06-27T14:54:54Z</time>
      </trkpt>
      <trkpt lat="49.64333" lon="4.98315">
        <ele>163.56</ele>
        <time>2020-06-27T14:55:07Z</time>
      </trkpt>
      <trkpt lat="49.64317" lon="4.98302">
        <ele>162.12</ele>
        <time>2020-06-27T14:55:22Z</time>
      </trkpt>
      <trkpt lat="49.64307" lon="4.98296">
        <ele>162.12</ele>
        <time>2020-06-27T14:55:31Z</time>
      </trkpt>
      <trkpt lat="49.64297" lon="4.98283">
        <ele>159.24</ele>
        <time>2020-06-27T14:55:44Z</time>
      </trkpt>
      <trkpt lat="49.64287" lon="4.98275">
        <ele>157.31</ele>
        <time>2020-06-27T14:55:57Z</time>
      </trkpt>
      <trkpt lat="49.64274" lon="4.98265">
        <ele>158.75</ele>
        <time>2020-06-27T14:56:09Z</time>
      </trkpt>
      <trkpt lat="49.64262" lon="4.98254">
        <ele>158.75</ele>
        <time>2020-06-27T14:56:22Z</time>
      </trkpt>
      <trkpt lat="49.64251" lon="4.98246">
        <ele>157.31</ele>
        <time>2020-06-27T14:56:34Z</time>
      </trkpt>
      <trkpt lat="49.64239" lon="4.98233">
        <ele>158.27</ele>
        <time>2020-06-27T14:56:47Z</time>
      </trkpt>
      <trkpt lat="49.64226" lon="4.98222">
        <ele>159.24</ele>
        <time>2020-06-27T14:57:00Z</time>
      </trkpt>
      <trkpt lat="49.64215" lon="4.98212">
        <ele>160.2</ele>
        <time>2020-06-27T14:57:14Z</time>
      </trkpt>
      <trkpt lat="49.64202" lon="4.98199">
        <ele>162.6</ele>
        <time>2020-06-27T14:57:29Z</time>
      </trkpt>
      <trkpt lat="49.64192" lon="4.98189">
        <ele>165</ele>
        <time>2020-06-27T14:57:44Z</time>
      </trkpt>
      <trkpt lat="49.64182" lon="4.9818">
        <ele>164.52</ele>
        <time>2020-06-27T14:57:56Z</time>
      </trkpt>
      <trkpt lat="49.64172" lon="4.98171">
        <ele>163.56</ele>
        <time>2020-06-27T14:58:06Z</time>
      </trkpt>
      <trkpt lat="49.64161" lon="4.9816">
        <ele>163.56</ele>
        <time>2020-06-27T14:58:18Z</time>
      </trkpt>
      <trkpt lat="49.64152" lon="4.98151">
        <ele>165.48</ele>
        <time>2020-06-27T14:58:31Z</time>
      </trkpt>
      <trkpt lat="49.64142" lon="4.98143">
        <ele>165.48</ele>
        <time>2020-06-27T14:58:43Z</time>
      </trkpt>
      <trkpt lat="49.6413" lon="4.98129">
        <ele>165.96</ele>
        <time>2020-06-27T14:58:56Z</time>
      </trkpt>
      <trkpt lat="49.64122" lon="4.98119">
        <ele>166.45</ele>
        <time>2020-06-27T14:59:08Z</time>
      </trkpt>
      <trkpt lat="49.6411" lon="4.98111">
        <ele>164.52</ele>
        <time>2020-06-27T14:59:23Z</time>
      </trkpt>
      <trkpt lat="49.64098" lon="4.981">
        <ele>164.52</ele>
        <time>2020-06-27T14:59:38Z</time>
      </trkpt>
      <trkpt lat="49.64082" lon="4.98086">
        <ele>163.08</ele>
        <time>2020-06-27T14:59:53Z</time>
      </trkpt>
      <trkpt lat="49.64068" lon="4.98072">
        <ele>162.6</ele>
        <time>2020-06-27T15:00:07Z</time>
      </trkpt>
      <trkpt lat="49.64055" lon="4.98061">
        <ele>163.08</ele>
        <time>2020-06-27T15:00:21Z</time>
      </trkpt>
      <trkpt lat="49.64043" lon="4.98047">
        <ele>165</ele>
        <time>2020-06-27T15:00:40Z</time>
      </trkpt>
      <trkpt lat="49.64028" lon="4.98035">
        <ele>165</ele>
        <time>2020-06-27T15:00:54Z</time>
      </trkpt>
      <trkpt lat="49.64012" lon="4.9802">
        <ele>163.08</ele>
        <time>2020-06-27T15:01:10Z</time>
      </trkpt>
      <trkpt lat="49.63998" lon="4.98006">
        <ele>163.08</ele>
        <time>2020-06-27T15:01:27Z</time>
      </trkpt>
      <trkpt lat="49.63987" lon="4.97997">
        <ele>164.04</ele>
        <time>2020-06-27T15:01:43Z</time>
      </trkpt>
      <trkpt lat="49.63975" lon="4.97985">
        <ele>163.56</ele>
        <time>2020-06-27T15:01:58Z</time>
      </trkpt>
      <trkpt lat="49.63962" lon="4.97973">
        <ele>162.6</ele>
        <time>2020-06-27T15:02:11Z</time>
      </trkpt>
      <trkpt lat="49.63945" lon="4.97958">
        <ele>162.12</ele>
        <time>2020-06-27T15:02:26Z</time>
      </trkpt>
      <trkpt lat="49.63936" lon="4.97948">
        <ele>158.75</ele>
        <time>2020-06-27T15:02:37Z</time>
      </trkpt>
      <trkpt lat="49.63938" lon="4.97948">
        <ele>159.72</ele>
        <time>2020-06-27T15:02:58Z</time>
      </trkpt>
      <trkpt lat="49.63931" lon="4.97945">
        <ele>161.16</ele>
        <time>2020-06-27T15:03:16Z</time>
      </trkpt>
      <trkpt lat="49.63919" lon="4.97933">
        <ele>161.16</ele>
        <time>2020-06-27T15:03:31Z</time>
      </trkpt>
      <trkpt lat="49.6391" lon="4.97925">
        <ele>161.64</ele>
        <time>2020-06-27T15:03:45Z</time>
      </trkpt>
      <trkpt lat="49.63899" lon="4.97914">
        <ele>161.64</ele>
        <time>2020-06-27T15:03:59Z</time>
      </trkpt>
      <trkpt lat="49.63885" lon="4.97901">
        <ele>160.2</ele>
        <time>2020-06-27T15:04:13Z</time>
      </trkpt>
      <trkpt lat="49.63873" lon="4.97888">
        <ele>160.2</ele>
        <time>2020-06-27T15:04:27Z</time>
      </trkpt>
      <trkpt lat="49.63863" lon="4.97878">
        <ele>162.12</ele>
        <time>2020-06-27T15:04:39Z</time>
      </trkpt>
      <trkpt lat="49.63861" lon="4.97877">
        <ele>162.6</ele>
        <time>2020-06-27T15:04:54Z</time>
      </trkpt>
      <trkpt lat="49.63851" lon="4.97867">
        <ele>162.6</ele>
        <time>2020-06-27T15:05:07Z</time>
      </trkpt>
      <trkpt lat="49.63845" lon="4.9786">
        <ele>163.56</ele>
        <time>2020-06-27T15:05:20Z</time>
      </trkpt>
      <trkpt lat="49.63844" lon="4.97861">
        <ele>164.52</ele>
        <time>2020-06-27T15:05:35Z</time>
      </trkpt>
      <trkpt lat="49.63836" lon="4.97854">
        <ele>164.04</ele>
        <time>2020-06-27T15:05:51Z</time>
      </trkpt>
      <trkpt lat="49.63825" lon="4.97843">
        <ele>164.04</ele>
        <time>2020-06-27T15:06:04Z</time>
      </trkpt>
      <trkpt lat="49.63813" lon="4.97833">
        <ele>163.56</ele>
        <time>2020-06-27T15:06:17Z</time>
      </trkpt>
      <trkpt lat="49.63802" lon="4.97821">
        <ele>164.04</ele>
        <time>2020-06-27T15:06:30Z</time>
      </trkpt>
      <trkpt lat="49.63791" lon="4.97811">
        <ele>164.52</ele>
        <time>2020-06-27T15:06:45Z</time>
      </trkpt>
      <trkpt lat="49.63779" lon="4.97798">
        <ele>164.04</ele>
        <time>2020-06-27T15:06:58Z</time>
      </trkpt>
      <trkpt lat="49.63767" lon="4.97789">
        <ele>164.52</ele>
        <time>2020-06-27T15:07:11Z</time>
      </trkpt>
      <trkpt lat="49.63758" lon="4.97783">
        <ele>165.96</ele>
        <time>2020-06-27T15:07:23Z</time>
      </trkpt>
      <trkpt lat="49.63757" lon="4.9778">
        <ele>166.45</ele>
        <time>2020-06-27T15:07:25Z</time>
      </trkpt>
      <trkpt lat="49.63743" lon="4.97771">
        <ele>167.41</ele>
        <time>2020-06-27T15:07:39Z</time>
      </trkpt>
      <trkpt lat="49.63732" lon="4.97761">
        <ele>166.93</ele>
        <time>2020-06-27T15:07:53Z</time>
      </trkpt>
      <trkpt lat="49.6372" lon="4.97749">
        <ele>166.45</ele>
        <time>2020-06-27T15:08:06Z</time>
      </trkpt>
      <trkpt lat="49.63708" lon="4.97741">
        <ele>164.52</ele>
        <time>2020-06-27T15:08:21Z</time>
      </trkpt>
      <trkpt lat="49.63706" lon="4.97739">
        <ele>164.52</ele>
        <time>2020-06-27T15:08:23Z</time>
      </trkpt>
      <trkpt lat="49.63702" lon="4.97737">
        <ele>163.56</ele>
        <time>2020-06-27T15:08:28Z</time>
      </trkpt>
      <trkpt lat="49.63689" lon="4.97728">
        <ele>163.56</ele>
        <time>2020-06-27T15:08:42Z</time>
      </trkpt>
      <trkpt lat="49.63679" lon="4.9772">
        <ele>162.6</ele>
        <time>2020-06-27T15:08:54Z</time>
      </trkpt>
      <trkpt lat="49.63668" lon="4.97712">
        <ele>164.04</ele>
        <time>2020-06-27T15:09:07Z</time>
      </trkpt>
      <trkpt lat="49.63657" lon="4.97703">
        <ele>165.48</ele>
        <time>2020-06-27T15:09:19Z</time>
      </trkpt>
      <trkpt lat="49.63647" lon="4.97696">
        <ele>165.48</ele>
        <time>2020-06-27T15:09:32Z</time>
      </trkpt>
      <trkpt lat="49.63637" lon="4.97686">
        <ele>165.96</ele>
        <time>2020-06-27T15:09:44Z</time>
      </trkpt>
      <trkpt lat="49.63627" lon="4.97678">
        <ele>166.93</ele>
        <time>2020-06-27T15:09:55Z</time>
      </trkpt>
      <trkpt lat="49.63618" lon="4.97669">
        <ele>166.45</ele>
        <time>2020-06-27T15:10:08Z</time>
      </trkpt>
      <trkpt lat="49.63616" lon="4.97668">
        <ele>165.96</ele>
        <time>2020-06-27T15:10:10Z</time>
      </trkpt>
      <trkpt lat="49.63612" lon="4.97668">
        <ele>165.96</ele>
        <time>2020-06-27T15:10:23Z</time>
      </trkpt>
      <trkpt lat="49.63608" lon="4.97668">
        <ele>165</ele>
        <time>2020-06-27T15:10:35Z</time>
      </trkpt>
      <trkpt lat="49.63598" lon="4.97671">
        <ele>163.08</ele>
        <time>2020-06-27T15:10:47Z</time>
      </trkpt>
      <trkpt lat="49.63584" lon="4.97681">
        <ele>161.64</ele>
        <time>2020-06-27T15:11:02Z</time>
      </trkpt>
      <trkpt lat="49.63578" lon="4.9769">
        <ele>163.56</ele>
        <time>2020-06-27T15:11:12Z</time>
      </trkpt>
      <trkpt lat="49.63577" lon="4.97691">
        <ele>163.56</ele>
        <time>2020-06-27T15:11:14Z</time>
      </trkpt>
      <trkpt lat="49.63568" lon="4.97705">
        <ele>164.04</ele>
        <time>2020-06-27T15:11:27Z</time>
      </trkpt>
      <trkpt lat="49.63563" lon="4.97717">
        <ele>163.56</ele>
        <time>2020-06-27T15:11:38Z</time>
      </trkpt>
      <trkpt lat="49.63562" lon="4.97717">
        <ele>164.04</ele>
        <time>2020-06-27T15:12:01Z</time>
      </trkpt>
      <trkpt lat="49.63562" lon="4.97718">
        <ele>164.04</ele>
        <time>2020-06-27T15:12:03Z</time>
      </trkpt>
      <trkpt lat="49.63554" lon="4.97734">
        <ele>160.2</ele>
        <time>2020-06-27T15:12:16Z</time>
      </trkpt>
      <trkpt lat="49.63547" lon="4.97753">
        <ele>158.27</ele>
        <time>2020-06-27T15:12:30Z</time>
      </trkpt>
      <trkpt lat="49.63541" lon="4.9777">
        <ele>157.31</ele>
        <time>2020-06-27T15:12:44Z</time>
      </trkpt>
      <trkpt lat="49.63534" lon="4.97777">
        <ele>157.31</ele>
        <time>2020-06-27T15:12:57Z</time>
      </trkpt>
      <trkpt lat="49.63521" lon="4.97789">
        <ele>157.79</ele>
        <time>2020-06-27T15:13:10Z</time>
      </trkpt>
      <trkpt lat="49.63517" lon="4.97794">
        <ele>159.72</ele>
        <time>2020-06-27T15:13:16Z</time>
      </trkpt>
      <trkpt lat="49.63503" lon="4.978">
        <ele>158.75</ele>
        <time>2020-06-27T15:13:28Z</time>
      </trkpt>
      <trkpt lat="49.63493" lon="4.97814">
        <ele>154.91</ele>
        <time>2020-06-27T15:13:42Z</time>
      </trkpt>
      <trkpt lat="49.63484" lon="4.97822">
        <ele>152.03</ele>
        <time>2020-06-27T15:13:53Z</time>
      </trkpt>
      <trkpt lat="49.63477" lon="4.97839">
        <ele>152.03</ele>
        <time>2020-06-27T15:14:07Z</time>
      </trkpt>
      <trkpt lat="49.63468" lon="4.97854">
        <ele>153.95</ele>
        <time>2020-06-27T15:14:20Z</time>
      </trkpt>
      <trkpt lat="49.63466" lon="4.97856">
        <ele>154.43</ele>
        <time>2020-06-27T15:14:23Z</time>
      </trkpt>
      <trkpt lat="49.6346" lon="4.97867">
        <ele>157.79</ele>
        <time>2020-06-27T15:14:32Z</time>
      </trkpt>
      <trkpt lat="49.63451" lon="4.9788">
        <ele>163.56</ele>
        <time>2020-06-27T15:14:45Z</time>
      </trkpt>
      <trkpt lat="49.63449" lon="4.97883">
        <ele>164.04</ele>
        <time>2020-06-27T15:14:48Z</time>
      </trkpt>
      <trkpt lat="49.63446" lon="4.9789">
        <ele>165</ele>
        <time>2020-06-27T15:14:54Z</time>
      </trkpt>
      <trkpt lat="49.63434" lon="4.979">
        <ele>168.37</ele>
        <time>2020-06-27T15:15:07Z</time>
      </trkpt>
      <trkpt lat="49.63424" lon="4.97905">
        <ele>172.69</ele>
        <time>2020-06-27T15:15:20Z</time>
      </trkpt>
      <trkpt lat="49.63414" lon="4.97914">
        <ele>175.58</ele>
        <time>2020-06-27T15:15:33Z</time>
      </trkpt>
      <trkpt lat="49.63404" lon="4.97924">
        <ele>177.5</ele>
        <time>2020-06-27T15:15:45Z</time>
      </trkpt>
      <trkpt lat="49.63394" lon="4.97931">
        <ele>176.54</ele>
        <time>2020-06-27T15:15:56Z</time>
      </trkpt>
      <trkpt lat="49.63389" lon="4.97938">
        <ele>175.58</ele>
        <time>2020-06-27T15:16:03Z</time>
      </trkpt>
      <trkpt lat="49.63388" lon="4.97944">
        <ele>175.58</ele>
        <time>2020-06-27T15:16:07Z</time>
      </trkpt>
      <trkpt lat="49.63392" lon="4.97961">
        <ele>176.54</ele>
        <time>2020-06-27T15:16:20Z</time>
      </trkpt>
      <trkpt lat="49.63392" lon="4.97962">
        <ele>176.54</ele>
        <time>2020-06-27T15:16:21Z</time>
      </trkpt>
      <trkpt lat="49.63402" lon="4.97979">
        <ele>177.02</ele>
        <time>2020-06-27T15:16:35Z</time>
      </trkpt>
      <trkpt lat="49.63406" lon="4.97987">
        <ele>177.5</ele>
        <time>2020-06-27T15:16:47Z</time>
      </trkpt>
      <trkpt lat="49.63412" lon="4.97998">
        <ele>177.5</ele>
        <time>2020-06-27T15:16:57Z</time>
      </trkpt>
      <trkpt lat="49.63413" lon="4.98">
        <ele>177.5</ele>
        <time>2020-06-27T15:16:59Z</time>
      </trkpt>
      <trkpt lat="49.63421" lon="4.98019">
        <ele>178.46</ele>
        <time>2020-06-27T15:17:12Z</time>
      </trkpt>
      <trkpt lat="49.63429" lon="4.98036">
        <ele>182.31</ele>
        <time>2020-06-27T15:17:25Z</time>
      </trkpt>
      <trkpt lat="49.63439" lon="4.98045">
        <ele>184.23</ele>
        <time>2020-06-27T15:17:37Z</time>
      </trkpt>
      <trkpt lat="49.63449" lon="4.98054">
        <ele>187.11</ele>
        <time>2020-06-27T15:17:50Z</time>
      </trkpt>
      <trkpt lat="49.63452" lon="4.98056">
        <ele>186.63</ele>
        <time>2020-06-27T15:18:05Z</time>
      </trkpt>
      <trkpt lat="49.63452" lon="4.98055">
        <ele>188.08</ele>
        <time>2020-06-27T15:18:24Z</time>
      </trkpt>
      <trkpt lat="49.63452" lon="4.98054">
        <ele>187.59</ele>
        <time>2020-06-27T15:18:33Z</time>
      </trkpt>
    </trkseg>
  </trk>
</gpx>